<?xml version="1.0" encoding="UTF-8" standalone="no" ?>
<gpx xmlns="http://www.topografix.com/GPX/1/1" xmlns:xsi="http://www.w3.org/2001/XMLSchema-instance" xsi:schemaLocation="http://www.topografix.com/GPX/1/1 http://www.topografix.com/GPX/1/1/gpx.xsd" version="1.1" creator="VisuGPX - https://www.visugpx.com">
  <metadata>
    <name>Ligne_Autour_11-22km</name>
    <desc><![CDATA[gnerando idor:6837548_6837567_8321596_12827438_13194341_]]></desc>
  </metadata>
  <trk>
    <name><![CDATA[Ligne_ForetHautesLandes_20km-12827438]]></name>
    <extensions>
      <line xmlns="http://www.topografix.com/GPX/gpx_style/0/2">
        <color>00FF00</color>
        <width>4</width>
      </line>
    </extensions>
    <trkseg>
      <trkpt lat="47.40791" lon="-1.37282">
        <ele>36</ele>
        <time>2023-11-05T10:35:49Z</time>
      </trkpt>
      <trkpt lat="47.40774" lon="-1.37209">
        <ele>36</ele>
        <time>2023-11-05T10:36:59Z</time>
      </trkpt>
      <trkpt lat="47.40885" lon="-1.37177">
        <ele>41</ele>
        <time>2023-11-05T10:39:30Z</time>
      </trkpt>
      <trkpt lat="47.40853" lon="-1.36962">
        <ele>42</ele>
        <time>2023-11-05T10:42:48Z</time>
      </trkpt>
      <trkpt lat="47.40742" lon="-1.36901">
        <ele>38</ele>
        <time>2023-11-05T10:45:26Z</time>
      </trkpt>
      <trkpt lat="47.40414" lon="-1.37054">
        <ele>38</ele>
        <time>2023-11-05T10:53:05Z</time>
      </trkpt>
      <trkpt lat="47.39429" lon="-1.3733">
        <ele>51</ele>
        <time>2023-11-05T11:15:23Z</time>
      </trkpt>
      <trkpt lat="47.38493" lon="-1.37815">
        <ele>49</ele>
        <time>2023-11-05T11:37:27Z</time>
      </trkpt>
      <trkpt lat="47.386" lon="-1.38248">
        <ele>51</ele>
        <time>2023-11-05T11:44:24Z</time>
      </trkpt>
      <trkpt lat="47.38182" lon="-1.38376">
        <ele>47</ele>
        <time>2023-11-05T11:53:53Z</time>
      </trkpt>
      <trkpt lat="47.37698" lon="-1.38396">
        <ele>52</ele>
        <time>2023-11-05T12:04:39Z</time>
      </trkpt>
      <trkpt lat="47.37318" lon="-1.37559">
        <ele>53</ele>
        <time>2023-11-05T12:19:50Z</time>
      </trkpt>
      <trkpt lat="47.36851" lon="-1.36967">
        <ele>56</ele>
        <time>2023-11-05T12:33:31Z</time>
      </trkpt>
      <trkpt lat="47.37" lon="-1.36804">
        <ele>53</ele>
        <time>2023-11-05T12:37:39Z</time>
      </trkpt>
      <trkpt lat="47.36979" lon="-1.36743">
        <ele>54</ele>
        <time>2023-11-05T12:38:41Z</time>
      </trkpt>
      <trkpt lat="47.3737" lon="-1.36518">
        <ele>55</ele>
        <time>2023-11-05T12:48:01Z</time>
      </trkpt>
      <trkpt lat="47.37933" lon="-1.35891">
        <ele>48</ele>
        <time>2023-11-05T13:03:42Z</time>
      </trkpt>
      <trkpt lat="47.37988" lon="-1.35952">
        <ele>47</ele>
        <time>2023-11-05T13:05:13Z</time>
      </trkpt>
      <trkpt lat="47.38043" lon="-1.3588">
        <ele>46</ele>
        <time>2023-11-05T13:06:52Z</time>
      </trkpt>
      <trkpt lat="47.38434" lon="-1.35671">
        <ele>40</ele>
        <time>2023-11-05T13:16:06Z</time>
      </trkpt>
      <trkpt lat="47.38562" lon="-1.36146">
        <ele>44</ele>
        <time>2023-11-05T13:23:48Z</time>
      </trkpt>
      <trkpt lat="47.38994" lon="-1.3613">
        <ele>51</ele>
        <time>2023-11-05T13:33:25Z</time>
      </trkpt>
      <trkpt lat="47.39533" lon="-1.36296">
        <ele>55</ele>
        <time>2023-11-05T13:45:40Z</time>
      </trkpt>
      <trkpt lat="47.39556" lon="-1.3651">
        <ele>56</ele>
        <time>2023-11-05T13:48:55Z</time>
      </trkpt>
      <trkpt lat="47.39806" lon="-1.36914">
        <ele>49</ele>
        <time>2023-11-05T13:57:10Z</time>
      </trkpt>
      <trkpt lat="47.40317" lon="-1.36673">
        <ele>34</ele>
        <time>2023-11-05T14:09:06Z</time>
      </trkpt>
      <trkpt lat="47.4041" lon="-1.36236">
        <ele>33</ele>
        <time>2023-11-05T14:15:59Z</time>
      </trkpt>
      <trkpt lat="47.40259" lon="-1.35206">
        <ele>34</ele>
        <time>2023-11-05T14:31:51Z</time>
      </trkpt>
      <trkpt lat="47.40114" lon="-1.34468">
        <ele>31</ele>
        <time>2023-11-05T14:43:25Z</time>
      </trkpt>
      <trkpt lat="47.4023" lon="-1.34347">
        <ele>28</ele>
        <time>2023-11-05T14:46:35Z</time>
      </trkpt>
      <trkpt lat="47.40131" lon="-1.34124">
        <ele>34</ele>
        <time>2023-11-05T14:50:36Z</time>
      </trkpt>
      <trkpt lat="47.40067" lon="-1.33833">
        <ele>44</ele>
        <time>2023-11-05T14:55:12Z</time>
      </trkpt>
      <trkpt lat="47.4016" lon="-1.33627">
        <ele>44</ele>
        <time>2023-11-05T14:58:56Z</time>
      </trkpt>
      <trkpt lat="47.40741" lon="-1.33721">
        <ele>31</ele>
        <time>2023-11-05T15:11:56Z</time>
      </trkpt>
      <trkpt lat="47.40706" lon="-1.32605">
        <ele>28</ele>
        <time>2023-11-05T15:28:45Z</time>
      </trkpt>
      <trkpt lat="47.40991" lon="-1.32519">
        <ele>36</ele>
        <time>2023-11-05T15:35:13Z</time>
      </trkpt>
      <trkpt lat="47.41037" lon="-1.32837">
        <ele>38</ele>
        <time>2023-11-05T15:40:07Z</time>
      </trkpt>
      <trkpt lat="47.41008" lon="-1.3312">
        <ele>39</ele>
        <time>2023-11-05T15:44:25Z</time>
      </trkpt>
      <trkpt lat="47.41101" lon="-1.33875">
        <ele>41</ele>
        <time>2023-11-05T15:55:58Z</time>
      </trkpt>
      <trkpt lat="47.41456" lon="-1.33987">
        <ele>32</ele>
        <time>2023-11-05T16:04:03Z</time>
      </trkpt>
      <trkpt lat="47.41705" lon="-1.34176">
        <ele>32</ele>
        <time>2023-11-05T16:10:16Z</time>
      </trkpt>
      <trkpt lat="47.41543" lon="-1.34545">
        <ele>34</ele>
        <time>2023-11-05T16:16:53Z</time>
      </trkpt>
      <trkpt lat="47.41427" lon="-1.34759">
        <ele>35</ele>
        <time>2023-11-05T16:21:01Z</time>
      </trkpt>
      <trkpt lat="47.41322" lon="-1.3482">
        <ele>37</ele>
        <time>2023-11-05T16:23:31Z</time>
      </trkpt>
      <trkpt lat="47.41659" lon="-1.35317">
        <ele>39</ele>
        <time>2023-11-05T16:34:07Z</time>
      </trkpt>
      <trkpt lat="47.41502" lon="-1.35523">
        <ele>39</ele>
        <time>2023-11-05T16:38:47Z</time>
      </trkpt>
      <trkpt lat="47.41264" lon="-1.35935">
        <ele>41</ele>
        <time>2023-11-05T16:46:56Z</time>
      </trkpt>
      <trkpt lat="47.40747" lon="-1.36871">
        <ele>39</ele>
        <time>2023-11-05T17:05:07Z</time>
      </trkpt>
      <trkpt lat="47.40843" lon="-1.36984">
        <ele>41</ele>
        <time>2023-11-05T17:07:51Z</time>
      </trkpt>
      <trkpt lat="47.40878" lon="-1.372">
        <ele>41</ele>
        <time>2023-11-05T17:11:12Z</time>
      </trkpt>
      <trkpt lat="47.40783" lon="-1.37202">
        <ele>37</ele>
        <time>2023-11-05T17:13:18Z</time>
      </trkpt>
      <trkpt lat="47.40791" lon="-1.37313">
        <ele>36</ele>
        <time>2023-11-05T17:14:59Z</time>
      </trkpt>
      <trkpt lat="47.40741" lon="-1.37271">
        <ele>35</ele>
        <time>2023-11-05T17:16:16Z</time>
      </trkpt>
    </trkseg>
  </trk>
  <trk>
    <name><![CDATA[Ligne_Foret_11.7km-6835703]]></name>
    <extensions>
      <line xmlns="http://www.topografix.com/GPX/gpx_style/0/2">
        <color>008000</color>
        <width>4</width>
      </line>
    </extensions>
    <trkseg>
      <trkpt lat="47.40776" lon="-1.37236">
        <ele>36</ele>
        <time>2024-12-22T14:24:14Z</time>
      </trkpt>
      <trkpt lat="47.40881" lon="-1.37182">
        <ele>41</ele>
        <time>2024-12-22T14:26:42Z</time>
      </trkpt>
      <trkpt lat="47.4085" lon="-1.36971">
        <ele>42</ele>
        <time>2024-12-22T14:29:57Z</time>
      </trkpt>
      <trkpt lat="47.40729" lon="-1.36886">
        <ele>38</ele>
        <time>2024-12-22T14:32:56Z</time>
      </trkpt>
      <trkpt lat="47.40671" lon="-1.36937">
        <ele>38</ele>
        <time>2024-12-22T14:34:26Z</time>
      </trkpt>
      <trkpt lat="47.40625" lon="-1.36966">
        <ele>37</ele>
        <time>2024-12-22T14:35:33Z</time>
      </trkpt>
      <trkpt lat="47.40566" lon="-1.36993">
        <ele>37</ele>
        <time>2024-12-22T14:36:55Z</time>
      </trkpt>
      <trkpt lat="47.4046" lon="-1.37023">
        <ele>36</ele>
        <time>2024-12-22T14:39:19Z</time>
      </trkpt>
      <trkpt lat="47.40419" lon="-1.37036">
        <ele>37</ele>
        <time>2024-12-22T14:40:15Z</time>
      </trkpt>
      <trkpt lat="47.40299" lon="-1.3707">
        <ele>41</ele>
        <time>2024-12-22T14:42:58Z</time>
      </trkpt>
      <trkpt lat="47.39886" lon="-1.37193">
        <ele>50</ele>
        <time>2024-12-22T14:52:21Z</time>
      </trkpt>
      <trkpt lat="47.39823" lon="-1.37211">
        <ele>51</ele>
        <time>2024-12-22T14:53:46Z</time>
      </trkpt>
      <trkpt lat="47.39805" lon="-1.37216">
        <ele>52</ele>
        <time>2024-12-22T14:54:11Z</time>
      </trkpt>
      <trkpt lat="47.39587" lon="-1.37277">
        <ele>53</ele>
        <time>2024-12-22T14:59:07Z</time>
      </trkpt>
      <trkpt lat="47.39459" lon="-1.37315">
        <ele>51</ele>
        <time>2024-12-22T15:02:01Z</time>
      </trkpt>
      <trkpt lat="47.39312" lon="-1.37362">
        <ele>49</ele>
        <time>2024-12-22T15:05:22Z</time>
      </trkpt>
      <trkpt lat="47.39238" lon="-1.37388">
        <ele>49</ele>
        <time>2024-12-22T15:07:03Z</time>
      </trkpt>
      <trkpt lat="47.38956" lon="-1.3754">
        <ele>46</ele>
        <time>2024-12-22T15:13:44Z</time>
      </trkpt>
      <trkpt lat="47.38622" lon="-1.37725">
        <ele>49</ele>
        <time>2024-12-22T15:21:40Z</time>
      </trkpt>
      <trkpt lat="47.3849" lon="-1.37801">
        <ele>49</ele>
        <time>2024-12-22T15:24:49Z</time>
      </trkpt>
      <trkpt lat="47.38579" lon="-1.38169">
        <ele>52</ele>
        <time>2024-12-22T15:30:42Z</time>
      </trkpt>
      <trkpt lat="47.38602" lon="-1.38237">
        <ele>51</ele>
        <time>2024-12-22T15:31:51Z</time>
      </trkpt>
      <trkpt lat="47.38279" lon="-1.38348">
        <ele>49</ele>
        <time>2024-12-22T15:39:13Z</time>
      </trkpt>
      <trkpt lat="47.38189" lon="-1.38378">
        <ele>47</ele>
        <time>2024-12-22T15:41:16Z</time>
      </trkpt>
      <trkpt lat="47.37698" lon="-1.38382">
        <ele>52</ele>
        <time>2024-12-22T15:52:12Z</time>
      </trkpt>
      <trkpt lat="47.37463" lon="-1.37871">
        <ele>53</ele>
        <time>2024-12-22T16:01:30Z</time>
      </trkpt>
      <trkpt lat="47.37345" lon="-1.3762">
        <ele>53</ele>
        <time>2024-12-22T16:06:06Z</time>
      </trkpt>
      <trkpt lat="47.37305" lon="-1.37535">
        <ele>53</ele>
        <time>2024-12-22T16:07:39Z</time>
      </trkpt>
      <trkpt lat="47.37306" lon="-1.37505">
        <ele>53</ele>
        <time>2024-12-22T16:08:07Z</time>
      </trkpt>
      <trkpt lat="47.37287" lon="-1.37485">
        <ele>53</ele>
        <time>2024-12-22T16:08:38Z</time>
      </trkpt>
      <trkpt lat="47.37237" lon="-1.37397">
        <ele>54</ele>
        <time>2024-12-22T16:10:22Z</time>
      </trkpt>
      <trkpt lat="47.37057" lon="-1.37187">
        <ele>50</ele>
        <time>2024-12-22T16:15:28Z</time>
      </trkpt>
      <trkpt lat="47.36916" lon="-1.3706">
        <ele>55</ele>
        <time>2024-12-22T16:19:08Z</time>
      </trkpt>
      <trkpt lat="47.36854" lon="-1.36959">
        <ele>56</ele>
        <time>2024-12-22T16:21:11Z</time>
      </trkpt>
      <trkpt lat="47.36993" lon="-1.368">
        <ele>54</ele>
        <time>2024-12-22T16:25:06Z</time>
      </trkpt>
      <trkpt lat="47.36984" lon="-1.36742">
        <ele>54</ele>
        <time>2024-12-22T16:26:00Z</time>
      </trkpt>
      <trkpt lat="47.37106" lon="-1.36669">
        <ele>54</ele>
        <time>2024-12-22T16:28:55Z</time>
      </trkpt>
      <trkpt lat="47.37231" lon="-1.3658">
        <ele>56</ele>
        <time>2024-12-22T16:32:01Z</time>
      </trkpt>
      <trkpt lat="47.37357" lon="-1.36504">
        <ele>55</ele>
        <time>2024-12-22T16:35:02Z</time>
      </trkpt>
      <trkpt lat="47.37644" lon="-1.36219">
        <ele>52</ele>
        <time>2024-12-22T16:42:44Z</time>
      </trkpt>
      <trkpt lat="47.37655" lon="-1.36213">
        <ele>51</ele>
        <time>2024-12-22T16:42:59Z</time>
      </trkpt>
      <trkpt lat="47.37812" lon="-1.36028">
        <ele>50</ele>
        <time>2024-12-22T16:47:27Z</time>
      </trkpt>
      <trkpt lat="47.37885" lon="-1.35945">
        <ele>48</ele>
        <time>2024-12-22T16:49:30Z</time>
      </trkpt>
      <trkpt lat="47.37934" lon="-1.35889">
        <ele>48</ele>
        <time>2024-12-22T16:50:53Z</time>
      </trkpt>
      <trkpt lat="47.38003" lon="-1.35952">
        <ele>47</ele>
        <time>2024-12-22T16:52:41Z</time>
      </trkpt>
      <trkpt lat="47.38051" lon="-1.35864">
        <ele>46</ele>
        <time>2024-12-22T16:54:23Z</time>
      </trkpt>
      <trkpt lat="47.38177" lon="-1.35808">
        <ele>41</ele>
        <time>2024-12-22T16:57:19Z</time>
      </trkpt>
      <trkpt lat="47.3844" lon="-1.35665">
        <ele>40</ele>
        <time>2024-12-22T17:03:33Z</time>
      </trkpt>
      <trkpt lat="47.38483" lon="-1.35849">
        <ele>40</ele>
        <time>2024-12-22T17:06:29Z</time>
      </trkpt>
      <trkpt lat="47.38547" lon="-1.36126">
        <ele>43</ele>
        <time>2024-12-22T17:10:53Z</time>
      </trkpt>
      <trkpt lat="47.38743" lon="-1.36111">
        <ele>49</ele>
        <time>2024-12-22T17:15:15Z</time>
      </trkpt>
      <trkpt lat="47.38858" lon="-1.36134">
        <ele>51</ele>
        <time>2024-12-22T17:17:50Z</time>
      </trkpt>
      <trkpt lat="47.38889" lon="-1.36146">
        <ele>51</ele>
        <time>2024-12-22T17:18:33Z</time>
      </trkpt>
      <trkpt lat="47.38987" lon="-1.36139">
        <ele>51</ele>
        <time>2024-12-22T17:20:44Z</time>
      </trkpt>
      <trkpt lat="47.39108" lon="-1.36186">
        <ele>52</ele>
        <time>2024-12-22T17:23:31Z</time>
      </trkpt>
      <trkpt lat="47.3912" lon="-1.36183">
        <ele>52</ele>
        <time>2024-12-22T17:23:47Z</time>
      </trkpt>
      <trkpt lat="47.39342" lon="-1.36233">
        <ele>55</ele>
        <time>2024-12-22T17:28:47Z</time>
      </trkpt>
      <trkpt lat="47.39521" lon="-1.36278">
        <ele>56</ele>
        <time>2024-12-22T17:32:49Z</time>
      </trkpt>
      <trkpt lat="47.39539" lon="-1.36294">
        <ele>55</ele>
        <time>2024-12-22T17:33:17Z</time>
      </trkpt>
      <trkpt lat="47.3955" lon="-1.36481">
        <ele>56</ele>
        <time>2024-12-22T17:36:07Z</time>
      </trkpt>
      <trkpt lat="47.39638" lon="-1.36621">
        <ele>54</ele>
        <time>2024-12-22T17:38:59Z</time>
      </trkpt>
      <trkpt lat="47.39707" lon="-1.36765">
        <ele>51</ele>
        <time>2024-12-22T17:41:38Z</time>
      </trkpt>
      <trkpt lat="47.39755" lon="-1.36838">
        <ele>52</ele>
        <time>2024-12-22T17:43:10Z</time>
      </trkpt>
      <trkpt lat="47.39815" lon="-1.36895">
        <ele>48</ele>
        <time>2024-12-22T17:44:46Z</time>
      </trkpt>
      <trkpt lat="47.39861" lon="-1.36903">
        <ele>46</ele>
        <time>2024-12-22T17:45:47Z</time>
      </trkpt>
      <trkpt lat="47.40113" lon="-1.36784">
        <ele>41</ele>
        <time>2024-12-22T17:51:40Z</time>
      </trkpt>
      <trkpt lat="47.40317" lon="-1.36673">
        <ele>34</ele>
        <time>2024-12-22T17:56:31Z</time>
      </trkpt>
      <trkpt lat="47.4037" lon="-1.36544">
        <ele>33</ele>
        <time>2024-12-22T17:58:47Z</time>
      </trkpt>
      <trkpt lat="47.40629" lon="-1.36782">
        <ele>36</ele>
        <time>2024-12-22T18:05:34Z</time>
      </trkpt>
      <trkpt lat="47.40732" lon="-1.36886">
        <ele>38</ele>
        <time>2024-12-22T18:08:20Z</time>
      </trkpt>
      <trkpt lat="47.40852" lon="-1.36961">
        <ele>42</ele>
        <time>2024-12-22T18:11:14Z</time>
      </trkpt>
      <trkpt lat="47.40886" lon="-1.37165">
        <ele>42</ele>
        <time>2024-12-22T18:14:24Z</time>
      </trkpt>
      <trkpt lat="47.40777" lon="-1.3722">
        <ele>36</ele>
        <time>2024-12-22T18:16:58Z</time>
      </trkpt>
      <trkpt lat="47.40798" lon="-1.37289">
        <ele>36</ele>
        <time>2024-12-22T18:18:06Z</time>
      </trkpt>
      <trkpt lat="47.40748" lon="-1.37296">
        <ele>34</ele>
        <time>2024-12-22T18:19:13Z</time>
      </trkpt>
    </trkseg>
  </trk>
  <trk>
    <name><![CDATA[Ligne_Boucle12km_18274217-18308281]]></name>
    <extensions>
      <line xmlns="http://www.topografix.com/GPX/gpx_style/0/2">
        <color>FF0000</color>
        <width>4</width>
      </line>
    </extensions>
    <trkseg>
      <trkpt lat="47.4104" lon="-1.37466">
        <ele>38</ele>
        <time>2024-12-22T14:38:18Z</time>
      </trkpt>
      <trkpt lat="47.41039" lon="-1.37445">
        <ele>38</ele>
        <time>2024-12-22T14:38:37Z</time>
      </trkpt>
      <trkpt lat="47.41028" lon="-1.37423">
        <ele>38</ele>
        <time>2024-12-22T14:39:02Z</time>
      </trkpt>
      <trkpt lat="47.40941" lon="-1.3728">
        <ele>40</ele>
        <time>2024-12-22T14:41:55Z</time>
      </trkpt>
      <trkpt lat="47.40907" lon="-1.3721">
        <ele>42</ele>
        <time>2024-12-22T14:43:13Z</time>
      </trkpt>
      <trkpt lat="47.40863" lon="-1.36995">
        <ele>42</ele>
        <time>2024-12-22T14:46:36Z</time>
      </trkpt>
      <trkpt lat="47.40861" lon="-1.36957">
        <ele>42</ele>
        <time>2024-12-22T14:47:10Z</time>
      </trkpt>
      <trkpt lat="47.4087" lon="-1.36795">
        <ele>42</ele>
        <time>2024-12-22T14:49:37Z</time>
      </trkpt>
      <trkpt lat="47.40861" lon="-1.36771">
        <ele>42</ele>
        <time>2024-12-22T14:50:02Z</time>
      </trkpt>
      <trkpt lat="47.40853" lon="-1.36768">
        <ele>42</ele>
        <time>2024-12-22T14:50:13Z</time>
      </trkpt>
      <trkpt lat="47.40844" lon="-1.36771">
        <ele>41</ele>
        <time>2024-12-22T14:50:25Z</time>
      </trkpt>
      <trkpt lat="47.40838" lon="-1.36761">
        <ele>41</ele>
        <time>2024-12-22T14:50:37Z</time>
      </trkpt>
      <trkpt lat="47.4084" lon="-1.3675">
        <ele>41</ele>
        <time>2024-12-22T14:50:48Z</time>
      </trkpt>
      <trkpt lat="47.41338" lon="-1.35776">
        <ele>41</ele>
        <time>2024-12-22T15:09:10Z</time>
      </trkpt>
      <trkpt lat="47.41427" lon="-1.35595">
        <ele>40</ele>
        <time>2024-12-22T15:12:32Z</time>
      </trkpt>
      <trkpt lat="47.41512" lon="-1.35461">
        <ele>39</ele>
        <time>2024-12-22T15:15:18Z</time>
      </trkpt>
      <trkpt lat="47.41567" lon="-1.35388">
        <ele>40</ele>
        <time>2024-12-22T15:16:57Z</time>
      </trkpt>
      <trkpt lat="47.4163" lon="-1.35324">
        <ele>39</ele>
        <time>2024-12-22T15:18:39Z</time>
      </trkpt>
      <trkpt lat="47.41658" lon="-1.35303">
        <ele>39</ele>
        <time>2024-12-22T15:19:21Z</time>
      </trkpt>
      <trkpt lat="47.41868" lon="-1.35113">
        <ele>35</ele>
        <time>2024-12-22T15:24:49Z</time>
      </trkpt>
      <trkpt lat="47.41876" lon="-1.351">
        <ele>36</ele>
        <time>2024-12-22T15:25:05Z</time>
      </trkpt>
      <trkpt lat="47.41877" lon="-1.35084">
        <ele>36</ele>
        <time>2024-12-22T15:25:20Z</time>
      </trkpt>
      <trkpt lat="47.41837" lon="-1.34975">
        <ele>35</ele>
        <time>2024-12-22T15:27:12Z</time>
      </trkpt>
      <trkpt lat="47.41604" lon="-1.34416">
        <ele>35</ele>
        <time>2024-12-22T15:37:04Z</time>
      </trkpt>
      <trkpt lat="47.41603" lon="-1.34403">
        <ele>35</ele>
        <time>2024-12-22T15:37:16Z</time>
      </trkpt>
      <trkpt lat="47.41611" lon="-1.34377">
        <ele>34</ele>
        <time>2024-12-22T15:37:42Z</time>
      </trkpt>
      <trkpt lat="47.41677" lon="-1.34219">
        <ele>32</ele>
        <time>2024-12-22T15:40:30Z</time>
      </trkpt>
      <trkpt lat="47.4168" lon="-1.34204">
        <ele>32</ele>
        <time>2024-12-22T15:40:44Z</time>
      </trkpt>
      <trkpt lat="47.41669" lon="-1.3418">
        <ele>32</ele>
        <time>2024-12-22T15:41:10Z</time>
      </trkpt>
      <trkpt lat="47.41403" lon="-1.3395">
        <ele>33</ele>
        <time>2024-12-22T15:48:01Z</time>
      </trkpt>
      <trkpt lat="47.4132" lon="-1.33895">
        <ele>35</ele>
        <time>2024-12-22T15:50:03Z</time>
      </trkpt>
      <trkpt lat="47.41298" lon="-1.33884">
        <ele>36</ele>
        <time>2024-12-22T15:50:34Z</time>
      </trkpt>
      <trkpt lat="47.41222" lon="-1.33878">
        <ele>39</ele>
        <time>2024-12-22T15:52:15Z</time>
      </trkpt>
      <trkpt lat="47.41085" lon="-1.33857">
        <ele>41</ele>
        <time>2024-12-22T15:55:19Z</time>
      </trkpt>
      <trkpt lat="47.41077" lon="-1.33811">
        <ele>41</ele>
        <time>2024-12-22T15:56:02Z</time>
      </trkpt>
      <trkpt lat="47.41074" lon="-1.33684">
        <ele>40</ele>
        <time>2024-12-22T15:57:57Z</time>
      </trkpt>
      <trkpt lat="47.41068" lon="-1.33615">
        <ele>40</ele>
        <time>2024-12-22T15:58:59Z</time>
      </trkpt>
      <trkpt lat="47.40997" lon="-1.3315">
        <ele>39</ele>
        <time>2024-12-22T16:06:10Z</time>
      </trkpt>
      <trkpt lat="47.41025" lon="-1.32807">
        <ele>38</ele>
        <time>2024-12-22T16:11:22Z</time>
      </trkpt>
      <trkpt lat="47.41008" lon="-1.32568">
        <ele>37</ele>
        <time>2024-12-22T16:14:59Z</time>
      </trkpt>
      <trkpt lat="47.41005" lon="-1.32551">
        <ele>37</ele>
        <time>2024-12-22T16:15:15Z</time>
      </trkpt>
      <trkpt lat="47.40997" lon="-1.3254">
        <ele>36</ele>
        <time>2024-12-22T16:15:29Z</time>
      </trkpt>
      <trkpt lat="47.40986" lon="-1.32539">
        <ele>36</ele>
        <time>2024-12-22T16:15:44Z</time>
      </trkpt>
      <trkpt lat="47.40937" lon="-1.32552">
        <ele>36</ele>
        <time>2024-12-22T16:16:51Z</time>
      </trkpt>
      <trkpt lat="47.40784" lon="-1.32609">
        <ele>31</ele>
        <time>2024-12-22T16:20:21Z</time>
      </trkpt>
      <trkpt lat="47.40733" lon="-1.32623">
        <ele>29</ele>
        <time>2024-12-22T16:21:30Z</time>
      </trkpt>
      <trkpt lat="47.40722" lon="-1.32629">
        <ele>29</ele>
        <time>2024-12-22T16:21:46Z</time>
      </trkpt>
      <trkpt lat="47.40717" lon="-1.32643">
        <ele>28</ele>
        <time>2024-12-22T16:22:00Z</time>
      </trkpt>
      <trkpt lat="47.40713" lon="-1.32692">
        <ele>29</ele>
        <time>2024-12-22T16:22:45Z</time>
      </trkpt>
      <trkpt lat="47.40714" lon="-1.32832">
        <ele>30</ele>
        <time>2024-12-22T16:24:51Z</time>
      </trkpt>
      <trkpt lat="47.40757" lon="-1.3366">
        <ele>33</ele>
        <time>2024-12-22T16:37:21Z</time>
      </trkpt>
      <trkpt lat="47.40754" lon="-1.33695">
        <ele>32</ele>
        <time>2024-12-22T16:37:53Z</time>
      </trkpt>
      <trkpt lat="47.40745" lon="-1.33702">
        <ele>32</ele>
        <time>2024-12-22T16:38:07Z</time>
      </trkpt>
      <trkpt lat="47.40722" lon="-1.33706">
        <ele>31</ele>
        <time>2024-12-22T16:38:38Z</time>
      </trkpt>
      <trkpt lat="47.40595" lon="-1.33703">
        <ele>26</ele>
        <time>2024-12-22T16:41:27Z</time>
      </trkpt>
      <trkpt lat="47.40528" lon="-1.33696">
        <ele>25</ele>
        <time>2024-12-22T16:42:57Z</time>
      </trkpt>
      <trkpt lat="47.40452" lon="-1.33683">
        <ele>27</ele>
        <time>2024-12-22T16:44:39Z</time>
      </trkpt>
      <trkpt lat="47.40223" lon="-1.33632">
        <ele>40</ele>
        <time>2024-12-22T16:49:48Z</time>
      </trkpt>
      <trkpt lat="47.40178" lon="-1.33627">
        <ele>43</ele>
        <time>2024-12-22T16:50:48Z</time>
      </trkpt>
      <trkpt lat="47.40167" lon="-1.33631">
        <ele>43</ele>
        <time>2024-12-22T16:51:03Z</time>
      </trkpt>
      <trkpt lat="47.40152" lon="-1.3365">
        <ele>44</ele>
        <time>2024-12-22T16:51:30Z</time>
      </trkpt>
      <trkpt lat="47.40082" lon="-1.3379">
        <ele>45</ele>
        <time>2024-12-22T16:54:07Z</time>
      </trkpt>
      <trkpt lat="47.40071" lon="-1.33822">
        <ele>44</ele>
        <time>2024-12-22T16:54:39Z</time>
      </trkpt>
      <trkpt lat="47.40068" lon="-1.33857">
        <ele>44</ele>
        <time>2024-12-22T16:55:11Z</time>
      </trkpt>
      <trkpt lat="47.40074" lon="-1.33928">
        <ele>43</ele>
        <time>2024-12-22T16:56:16Z</time>
      </trkpt>
      <trkpt lat="47.40089" lon="-1.34013">
        <ele>41</ele>
        <time>2024-12-22T16:57:35Z</time>
      </trkpt>
      <trkpt lat="47.40119" lon="-1.34093">
        <ele>35</ele>
        <time>2024-12-22T16:58:58Z</time>
      </trkpt>
      <trkpt lat="47.40177" lon="-1.34217">
        <ele>30</ele>
        <time>2024-12-22T17:01:14Z</time>
      </trkpt>
      <trkpt lat="47.40219" lon="-1.3435">
        <ele>29</ele>
        <time>2024-12-22T17:03:26Z</time>
      </trkpt>
      <trkpt lat="47.40217" lon="-1.34365">
        <ele>29</ele>
        <time>2024-12-22T17:03:40Z</time>
      </trkpt>
      <trkpt lat="47.4015" lon="-1.3442">
        <ele>30</ele>
        <time>2024-12-22T17:05:23Z</time>
      </trkpt>
      <trkpt lat="47.40141" lon="-1.34448">
        <ele>31</ele>
        <time>2024-12-22T17:05:50Z</time>
      </trkpt>
      <trkpt lat="47.40155" lon="-1.34527">
        <ele>31</ele>
        <time>2024-12-22T17:07:04Z</time>
      </trkpt>
      <trkpt lat="47.40159" lon="-1.3461">
        <ele>32</ele>
        <time>2024-12-22T17:08:19Z</time>
      </trkpt>
      <trkpt lat="47.40177" lon="-1.34758">
        <ele>34</ele>
        <time>2024-12-22T17:10:35Z</time>
      </trkpt>
      <trkpt lat="47.40197" lon="-1.34851">
        <ele>34</ele>
        <time>2024-12-22T17:12:03Z</time>
      </trkpt>
      <trkpt lat="47.40252" lon="-1.35166">
        <ele>34</ele>
        <time>2024-12-22T17:16:57Z</time>
      </trkpt>
      <trkpt lat="47.40258" lon="-1.35179">
        <ele>34</ele>
        <time>2024-12-22T17:17:11Z</time>
      </trkpt>
      <trkpt lat="47.40269" lon="-1.3518">
        <ele>34</ele>
        <time>2024-12-22T17:17:26Z</time>
      </trkpt>
      <trkpt lat="47.40297" lon="-1.35167">
        <ele>33</ele>
        <time>2024-12-22T17:18:05Z</time>
      </trkpt>
      <trkpt lat="47.40552" lon="-1.34997">
        <ele>35</ele>
        <time>2024-12-22T17:24:19Z</time>
      </trkpt>
      <trkpt lat="47.40563" lon="-1.34994">
        <ele>34</ele>
        <time>2024-12-22T17:24:34Z</time>
      </trkpt>
      <trkpt lat="47.40573" lon="-1.35002">
        <ele>34</ele>
        <time>2024-12-22T17:24:49Z</time>
      </trkpt>
      <trkpt lat="47.40611" lon="-1.35069">
        <ele>33</ele>
        <time>2024-12-22T17:26:08Z</time>
      </trkpt>
      <trkpt lat="47.4062" lon="-1.35078">
        <ele>33</ele>
        <time>2024-12-22T17:26:22Z</time>
      </trkpt>
      <trkpt lat="47.40631" lon="-1.35078">
        <ele>33</ele>
        <time>2024-12-22T17:26:37Z</time>
      </trkpt>
      <trkpt lat="47.40653" lon="-1.3507">
        <ele>32</ele>
        <time>2024-12-22T17:27:07Z</time>
      </trkpt>
      <trkpt lat="47.40737" lon="-1.35006">
        <ele>29</ele>
        <time>2024-12-22T17:29:13Z</time>
      </trkpt>
      <trkpt lat="47.40774" lon="-1.34969">
        <ele>30</ele>
        <time>2024-12-22T17:30:13Z</time>
      </trkpt>
      <trkpt lat="47.40919" lon="-1.34849">
        <ele>35</ele>
        <time>2024-12-22T17:33:55Z</time>
      </trkpt>
      <trkpt lat="47.40953" lon="-1.34825">
        <ele>36</ele>
        <time>2024-12-22T17:34:45Z</time>
      </trkpt>
      <trkpt lat="47.40964" lon="-1.34828">
        <ele>37</ele>
        <time>2024-12-22T17:35:00Z</time>
      </trkpt>
      <trkpt lat="47.40979" lon="-1.34851">
        <ele>37</ele>
        <time>2024-12-22T17:35:29Z</time>
      </trkpt>
      <trkpt lat="47.4111" lon="-1.35136">
        <ele>40</ele>
        <time>2024-12-22T17:40:40Z</time>
      </trkpt>
      <trkpt lat="47.4112" lon="-1.35149">
        <ele>40</ele>
        <time>2024-12-22T17:40:58Z</time>
      </trkpt>
      <trkpt lat="47.4113" lon="-1.35148">
        <ele>40</ele>
        <time>2024-12-22T17:41:11Z</time>
      </trkpt>
      <trkpt lat="47.4116" lon="-1.35119">
        <ele>40</ele>
        <time>2024-12-22T17:41:59Z</time>
      </trkpt>
      <trkpt lat="47.41205" lon="-1.35054">
        <ele>40</ele>
        <time>2024-12-22T17:43:23Z</time>
      </trkpt>
      <trkpt lat="47.41225" lon="-1.35006">
        <ele>38</ele>
        <time>2024-12-22T17:44:14Z</time>
      </trkpt>
      <trkpt lat="47.41256" lon="-1.34909">
        <ele>37</ele>
        <time>2024-12-22T17:45:51Z</time>
      </trkpt>
      <trkpt lat="47.41288" lon="-1.34854">
        <ele>37</ele>
        <time>2024-12-22T17:46:56Z</time>
      </trkpt>
      <trkpt lat="47.41299" lon="-1.34845">
        <ele>37</ele>
        <time>2024-12-22T17:47:13Z</time>
      </trkpt>
      <trkpt lat="47.41309" lon="-1.34845">
        <ele>37</ele>
        <time>2024-12-22T17:47:26Z</time>
      </trkpt>
      <trkpt lat="47.41327" lon="-1.3486">
        <ele>37</ele>
        <time>2024-12-22T17:47:54Z</time>
      </trkpt>
      <trkpt lat="47.4136" lon="-1.34906">
        <ele>36</ele>
        <time>2024-12-22T17:48:54Z</time>
      </trkpt>
      <trkpt lat="47.41583" lon="-1.35228">
        <ele>38</ele>
        <time>2024-12-22T17:55:50Z</time>
      </trkpt>
      <trkpt lat="47.41633" lon="-1.35309">
        <ele>39</ele>
        <time>2024-12-22T17:57:29Z</time>
      </trkpt>
      <trkpt lat="47.41631" lon="-1.3532">
        <ele>39</ele>
        <time>2024-12-22T17:57:40Z</time>
      </trkpt>
      <trkpt lat="47.41617" lon="-1.35338">
        <ele>40</ele>
        <time>2024-12-22T17:58:04Z</time>
      </trkpt>
      <trkpt lat="47.41518" lon="-1.3545">
        <ele>39</ele>
        <time>2024-12-22T18:00:51Z</time>
      </trkpt>
      <trkpt lat="47.4146" lon="-1.35537">
        <ele>39</ele>
        <time>2024-12-22T18:02:41Z</time>
      </trkpt>
      <trkpt lat="47.41374" lon="-1.35698">
        <ele>42</ele>
        <time>2024-12-22T18:05:46Z</time>
      </trkpt>
      <trkpt lat="47.4128" lon="-1.3589">
        <ele>41</ele>
        <time>2024-12-22T18:09:20Z</time>
      </trkpt>
      <trkpt lat="47.41233" lon="-1.35975">
        <ele>41</ele>
        <time>2024-12-22T18:10:59Z</time>
      </trkpt>
      <trkpt lat="47.40967" lon="-1.36502">
        <ele>44</ele>
        <time>2024-12-22T18:20:53Z</time>
      </trkpt>
      <trkpt lat="47.4084" lon="-1.36741">
        <ele>41</ele>
        <time>2024-12-22T18:25:28Z</time>
      </trkpt>
      <trkpt lat="47.40836" lon="-1.36755">
        <ele>41</ele>
        <time>2024-12-22T18:25:41Z</time>
      </trkpt>
      <trkpt lat="47.4084" lon="-1.36764">
        <ele>41</ele>
        <time>2024-12-22T18:25:51Z</time>
      </trkpt>
      <trkpt lat="47.40857" lon="-1.36767">
        <ele>42</ele>
        <time>2024-12-22T18:26:14Z</time>
      </trkpt>
      <trkpt lat="47.40866" lon="-1.36776">
        <ele>42</ele>
        <time>2024-12-22T18:26:28Z</time>
      </trkpt>
      <trkpt lat="47.40869" lon="-1.36794">
        <ele>42</ele>
        <time>2024-12-22T18:26:45Z</time>
      </trkpt>
      <trkpt lat="47.40857" lon="-1.36974">
        <ele>42</ele>
        <time>2024-12-22T18:29:28Z</time>
      </trkpt>
      <trkpt lat="47.40907" lon="-1.37208">
        <ele>42</ele>
        <time>2024-12-22T18:33:10Z</time>
      </trkpt>
      <trkpt lat="47.40926" lon="-1.37257">
        <ele>41</ele>
        <time>2024-12-22T18:34:01Z</time>
      </trkpt>
      <trkpt lat="47.41038" lon="-1.37441">
        <ele>38</ele>
        <time>2024-12-22T18:37:45Z</time>
      </trkpt>
      <trkpt lat="47.41038" lon="-1.37456">
        <ele>38</ele>
        <time>2024-12-22T18:37:58Z</time>
      </trkpt>
      <trkpt lat="47.41031" lon="-1.37463">
        <ele>39</ele>
        <time>2024-12-22T18:38:09Z</time>
      </trkpt>
      <trkpt lat="47.40988" lon="-1.37481">
        <ele>40</ele>
        <time>2024-12-22T18:39:09Z</time>
      </trkpt>
    </trkseg>
  </trk>
  <trk>
    <name><![CDATA[Ligne_HautesLandesVariante_21km-13194341]]></name>
    <extensions>
      <line xmlns="http://www.topografix.com/GPX/gpx_style/0/2">
        <color>00FFFF</color>
        <width>4</width>
      </line>
    </extensions>
    <trkseg>
      <trkpt lat="47.40682" lon="-1.37255">
        <ele>33</ele>
        <time>2024-12-22T14:37:34Z</time>
      </trkpt>
      <trkpt lat="47.40824" lon="-1.372">
        <ele>38</ele>
        <time>2024-12-22T14:40:50Z</time>
      </trkpt>
      <trkpt lat="47.40859" lon="-1.3717">
        <ele>40</ele>
        <time>2024-12-22T14:41:44Z</time>
      </trkpt>
      <trkpt lat="47.40875" lon="-1.37152">
        <ele>41</ele>
        <time>2024-12-22T14:42:11Z</time>
      </trkpt>
      <trkpt lat="47.40882" lon="-1.37121">
        <ele>42</ele>
        <time>2024-12-22T14:42:40Z</time>
      </trkpt>
      <trkpt lat="47.40861" lon="-1.37029">
        <ele>42</ele>
        <time>2024-12-22T14:44:08Z</time>
      </trkpt>
      <trkpt lat="47.40848" lon="-1.37">
        <ele>41</ele>
        <time>2024-12-22T14:44:39Z</time>
      </trkpt>
      <trkpt lat="47.40834" lon="-1.36978">
        <ele>41</ele>
        <time>2024-12-22T14:45:07Z</time>
      </trkpt>
      <trkpt lat="47.4082" lon="-1.36962">
        <ele>41</ele>
        <time>2024-12-22T14:45:30Z</time>
      </trkpt>
      <trkpt lat="47.40759" lon="-1.36913">
        <ele>38</ele>
        <time>2024-12-22T14:47:03Z</time>
      </trkpt>
      <trkpt lat="47.40747" lon="-1.36891">
        <ele>38</ele>
        <time>2024-12-22T14:47:28Z</time>
      </trkpt>
      <trkpt lat="47.40751" lon="-1.36864">
        <ele>39</ele>
        <time>2024-12-22T14:47:53Z</time>
      </trkpt>
      <trkpt lat="47.40769" lon="-1.36847">
        <ele>39</ele>
        <time>2024-12-22T14:48:22Z</time>
      </trkpt>
      <trkpt lat="47.40855" lon="-1.36717">
        <ele>42</ele>
        <time>2024-12-22T14:51:06Z</time>
      </trkpt>
      <trkpt lat="47.40893" lon="-1.36636">
        <ele>43</ele>
        <time>2024-12-22T14:52:35Z</time>
      </trkpt>
      <trkpt lat="47.4095" lon="-1.36533">
        <ele>44</ele>
        <time>2024-12-22T14:54:35Z</time>
      </trkpt>
      <trkpt lat="47.4096" lon="-1.36506">
        <ele>44</ele>
        <time>2024-12-22T14:55:03Z</time>
      </trkpt>
      <trkpt lat="47.40976" lon="-1.36481">
        <ele>44</ele>
        <time>2024-12-22T14:55:34Z</time>
      </trkpt>
      <trkpt lat="47.41028" lon="-1.36372">
        <ele>44</ele>
        <time>2024-12-22T14:57:35Z</time>
      </trkpt>
      <trkpt lat="47.41055" lon="-1.36328">
        <ele>44</ele>
        <time>2024-12-22T14:58:28Z</time>
      </trkpt>
      <trkpt lat="47.41082" lon="-1.36273">
        <ele>45</ele>
        <time>2024-12-22T14:59:30Z</time>
      </trkpt>
      <trkpt lat="47.41097" lon="-1.36249">
        <ele>45</ele>
        <time>2024-12-22T14:59:59Z</time>
      </trkpt>
      <trkpt lat="47.41121" lon="-1.36195">
        <ele>44</ele>
        <time>2024-12-22T15:00:57Z</time>
      </trkpt>
      <trkpt lat="47.41244" lon="-1.35954">
        <ele>41</ele>
        <time>2024-12-22T15:05:30Z</time>
      </trkpt>
      <trkpt lat="47.41279" lon="-1.35878">
        <ele>41</ele>
        <time>2024-12-22T15:06:53Z</time>
      </trkpt>
      <trkpt lat="47.41319" lon="-1.35808">
        <ele>40</ele>
        <time>2024-12-22T15:08:16Z</time>
      </trkpt>
      <trkpt lat="47.41372" lon="-1.35697">
        <ele>42</ele>
        <time>2024-12-22T15:10:18Z</time>
      </trkpt>
      <trkpt lat="47.41456" lon="-1.3554">
        <ele>39</ele>
        <time>2024-12-22T15:13:19Z</time>
      </trkpt>
      <trkpt lat="47.41504" lon="-1.35466">
        <ele>39</ele>
        <time>2024-12-22T15:14:52Z</time>
      </trkpt>
      <trkpt lat="47.41523" lon="-1.35445">
        <ele>39</ele>
        <time>2024-12-22T15:15:23Z</time>
      </trkpt>
      <trkpt lat="47.41556" lon="-1.35399">
        <ele>40</ele>
        <time>2024-12-22T15:16:24Z</time>
      </trkpt>
      <trkpt lat="47.41628" lon="-1.35326">
        <ele>39</ele>
        <time>2024-12-22T15:18:20Z</time>
      </trkpt>
      <trkpt lat="47.41623" lon="-1.35293">
        <ele>39</ele>
        <time>2024-12-22T15:18:51Z</time>
      </trkpt>
      <trkpt lat="47.415" lon="-1.35109">
        <ele>35</ele>
        <time>2024-12-22T15:22:45Z</time>
      </trkpt>
      <trkpt lat="47.41451" lon="-1.35041">
        <ele>35</ele>
        <time>2024-12-22T15:24:14Z</time>
      </trkpt>
      <trkpt lat="47.41347" lon="-1.34888">
        <ele>37</ele>
        <time>2024-12-22T15:27:30Z</time>
      </trkpt>
      <trkpt lat="47.41317" lon="-1.3484">
        <ele>37</ele>
        <time>2024-12-22T15:28:29Z</time>
      </trkpt>
      <trkpt lat="47.4132" lon="-1.34809">
        <ele>37</ele>
        <time>2024-12-22T15:28:57Z</time>
      </trkpt>
      <trkpt lat="47.41335" lon="-1.34785">
        <ele>36</ele>
        <time>2024-12-22T15:29:27Z</time>
      </trkpt>
      <trkpt lat="47.41352" lon="-1.34766">
        <ele>36</ele>
        <time>2024-12-22T15:29:55Z</time>
      </trkpt>
      <trkpt lat="47.41447" lon="-1.34679">
        <ele>34</ele>
        <time>2024-12-22T15:32:24Z</time>
      </trkpt>
      <trkpt lat="47.4148" lon="-1.3464">
        <ele>33</ele>
        <time>2024-12-22T15:33:21Z</time>
      </trkpt>
      <trkpt lat="47.41526" lon="-1.34572">
        <ele>33</ele>
        <time>2024-12-22T15:34:48Z</time>
      </trkpt>
      <trkpt lat="47.4154" lon="-1.34547">
        <ele>34</ele>
        <time>2024-12-22T15:35:17Z</time>
      </trkpt>
      <trkpt lat="47.41576" lon="-1.34463">
        <ele>35</ele>
        <time>2024-12-22T15:36:47Z</time>
      </trkpt>
      <trkpt lat="47.41609" lon="-1.34376">
        <ele>34</ele>
        <time>2024-12-22T15:38:17Z</time>
      </trkpt>
      <trkpt lat="47.41645" lon="-1.34297">
        <ele>33</ele>
        <time>2024-12-22T15:39:43Z</time>
      </trkpt>
      <trkpt lat="47.41726" lon="-1.341">
        <ele>31</ele>
        <time>2024-12-22T15:43:11Z</time>
      </trkpt>
      <trkpt lat="47.41733" lon="-1.34072">
        <ele>31</ele>
        <time>2024-12-22T15:43:38Z</time>
      </trkpt>
      <trkpt lat="47.4171" lon="-1.34024">
        <ele>31</ele>
        <time>2024-12-22T15:44:31Z</time>
      </trkpt>
      <trkpt lat="47.41682" lon="-1.33977">
        <ele>30</ele>
        <time>2024-12-22T15:45:28Z</time>
      </trkpt>
      <trkpt lat="47.41653" lon="-1.33939">
        <ele>31</ele>
        <time>2024-12-22T15:46:19Z</time>
      </trkpt>
      <trkpt lat="47.41599" lon="-1.3385">
        <ele>29</ele>
        <time>2024-12-22T15:48:07Z</time>
      </trkpt>
      <trkpt lat="47.41586" lon="-1.33822">
        <ele>29</ele>
        <time>2024-12-22T15:48:38Z</time>
      </trkpt>
      <trkpt lat="47.41577" lon="-1.33797">
        <ele>29</ele>
        <time>2024-12-22T15:49:03Z</time>
      </trkpt>
      <trkpt lat="47.41565" lon="-1.33744">
        <ele>28</ele>
        <time>2024-12-22T15:49:54Z</time>
      </trkpt>
      <trkpt lat="47.41557" lon="-1.33719">
        <ele>29</ele>
        <time>2024-12-22T15:50:19Z</time>
      </trkpt>
      <trkpt lat="47.41539" lon="-1.33636">
        <ele>29</ele>
        <time>2024-12-22T15:51:38Z</time>
      </trkpt>
      <trkpt lat="47.41531" lon="-1.33611">
        <ele>29</ele>
        <time>2024-12-22T15:52:03Z</time>
      </trkpt>
      <trkpt lat="47.41527" lon="-1.33585">
        <ele>29</ele>
        <time>2024-12-22T15:52:27Z</time>
      </trkpt>
      <trkpt lat="47.41485" lon="-1.33416">
        <ele>29</ele>
        <time>2024-12-22T15:55:09Z</time>
      </trkpt>
      <trkpt lat="47.4148" lon="-1.33382">
        <ele>30</ele>
        <time>2024-12-22T15:55:41Z</time>
      </trkpt>
      <trkpt lat="47.41457" lon="-1.33164">
        <ele>33</ele>
        <time>2024-12-22T15:59:00Z</time>
      </trkpt>
      <trkpt lat="47.41451" lon="-1.33137">
        <ele>33</ele>
        <time>2024-12-22T15:59:26Z</time>
      </trkpt>
      <trkpt lat="47.4145" lon="-1.33104">
        <ele>32</ele>
        <time>2024-12-22T15:59:55Z</time>
      </trkpt>
      <trkpt lat="47.41443" lon="-1.33069">
        <ele>32</ele>
        <time>2024-12-22T16:00:28Z</time>
      </trkpt>
      <trkpt lat="47.41437" lon="-1.32976">
        <ele>31</ele>
        <time>2024-12-22T16:01:53Z</time>
      </trkpt>
      <trkpt lat="47.41422" lon="-1.32852">
        <ele>32</ele>
        <time>2024-12-22T16:03:46Z</time>
      </trkpt>
      <trkpt lat="47.41407" lon="-1.32787">
        <ele>33</ele>
        <time>2024-12-22T16:04:48Z</time>
      </trkpt>
      <trkpt lat="47.414" lon="-1.3272">
        <ele>33</ele>
        <time>2024-12-22T16:05:50Z</time>
      </trkpt>
      <trkpt lat="47.41397" lon="-1.32631">
        <ele>31</ele>
        <time>2024-12-22T16:07:10Z</time>
      </trkpt>
      <trkpt lat="47.41366" lon="-1.32286">
        <ele>27</ele>
        <time>2024-12-22T16:12:24Z</time>
      </trkpt>
      <trkpt lat="47.41363" lon="-1.32188">
        <ele>25</ele>
        <time>2024-12-22T16:13:53Z</time>
      </trkpt>
      <trkpt lat="47.41355" lon="-1.32126">
        <ele>25</ele>
        <time>2024-12-22T16:14:50Z</time>
      </trkpt>
      <trkpt lat="47.41355" lon="-1.3209">
        <ele>25</ele>
        <time>2024-12-22T16:15:23Z</time>
      </trkpt>
      <trkpt lat="47.41341" lon="-1.31972">
        <ele>25</ele>
        <time>2024-12-22T16:17:11Z</time>
      </trkpt>
      <trkpt lat="47.41319" lon="-1.31674">
        <ele>24</ele>
        <time>2024-12-22T16:21:41Z</time>
      </trkpt>
      <trkpt lat="47.4131" lon="-1.31613">
        <ele>24</ele>
        <time>2024-12-22T16:22:38Z</time>
      </trkpt>
      <trkpt lat="47.41311" lon="-1.31582">
        <ele>23</ele>
        <time>2024-12-22T16:23:06Z</time>
      </trkpt>
      <trkpt lat="47.41301" lon="-1.31487">
        <ele>23</ele>
        <time>2024-12-22T16:24:33Z</time>
      </trkpt>
      <trkpt lat="47.41295" lon="-1.31332">
        <ele>26</ele>
        <time>2024-12-22T16:26:53Z</time>
      </trkpt>
      <trkpt lat="47.4129" lon="-1.31305">
        <ele>26</ele>
        <time>2024-12-22T16:27:18Z</time>
      </trkpt>
      <trkpt lat="47.41286" lon="-1.31214">
        <ele>26</ele>
        <time>2024-12-22T16:28:40Z</time>
      </trkpt>
      <trkpt lat="47.41282" lon="-1.31183">
        <ele>26</ele>
        <time>2024-12-22T16:29:09Z</time>
      </trkpt>
      <trkpt lat="47.41266" lon="-1.30957">
        <ele>28</ele>
        <time>2024-12-22T16:32:34Z</time>
      </trkpt>
      <trkpt lat="47.41262" lon="-1.30931">
        <ele>28</ele>
        <time>2024-12-22T16:32:58Z</time>
      </trkpt>
      <trkpt lat="47.4125" lon="-1.30743">
        <ele>24</ele>
        <time>2024-12-22T16:35:49Z</time>
      </trkpt>
      <trkpt lat="47.41242" lon="-1.30683">
        <ele>24</ele>
        <time>2024-12-22T16:36:44Z</time>
      </trkpt>
      <trkpt lat="47.41241" lon="-1.30629">
        <ele>24</ele>
        <time>2024-12-22T16:37:33Z</time>
      </trkpt>
      <trkpt lat="47.41236" lon="-1.30597">
        <ele>24</ele>
        <time>2024-12-22T16:38:02Z</time>
      </trkpt>
      <trkpt lat="47.4122" lon="-1.30579">
        <ele>24</ele>
        <time>2024-12-22T16:38:29Z</time>
      </trkpt>
      <trkpt lat="47.41199" lon="-1.30577">
        <ele>24</ele>
        <time>2024-12-22T16:38:57Z</time>
      </trkpt>
      <trkpt lat="47.41138" lon="-1.3059">
        <ele>26</ele>
        <time>2024-12-22T16:40:20Z</time>
      </trkpt>
      <trkpt lat="47.41116" lon="-1.30592">
        <ele>26</ele>
        <time>2024-12-22T16:40:49Z</time>
      </trkpt>
      <trkpt lat="47.41074" lon="-1.30601">
        <ele>27</ele>
        <time>2024-12-22T16:41:46Z</time>
      </trkpt>
      <trkpt lat="47.4103" lon="-1.30606">
        <ele>28</ele>
        <time>2024-12-22T16:42:45Z</time>
      </trkpt>
      <trkpt lat="47.40967" lon="-1.30618">
        <ele>29</ele>
        <time>2024-12-22T16:44:09Z</time>
      </trkpt>
      <trkpt lat="47.40902" lon="-1.30643">
        <ele>29</ele>
        <time>2024-12-22T16:45:39Z</time>
      </trkpt>
      <trkpt lat="47.40834" lon="-1.30655">
        <ele>29</ele>
        <time>2024-12-22T16:47:10Z</time>
      </trkpt>
      <trkpt lat="47.40816" lon="-1.30642">
        <ele>28</ele>
        <time>2024-12-22T16:47:37Z</time>
      </trkpt>
      <trkpt lat="47.40816" lon="-1.30477">
        <ele>23</ele>
        <time>2024-12-22T16:50:06Z</time>
      </trkpt>
      <trkpt lat="47.40805" lon="-1.30382">
        <ele>19</ele>
        <time>2024-12-22T16:51:33Z</time>
      </trkpt>
      <trkpt lat="47.40805" lon="-1.30351">
        <ele>17</ele>
        <time>2024-12-22T16:52:01Z</time>
      </trkpt>
      <trkpt lat="47.40811" lon="-1.30316">
        <ele>16</ele>
        <time>2024-12-22T16:52:34Z</time>
      </trkpt>
      <trkpt lat="47.4082" lon="-1.30287">
        <ele>16</ele>
        <time>2024-12-22T16:53:03Z</time>
      </trkpt>
      <trkpt lat="47.40831" lon="-1.30227">
        <ele>15</ele>
        <time>2024-12-22T16:53:59Z</time>
      </trkpt>
      <trkpt lat="47.4084" lon="-1.30197">
        <ele>16</ele>
        <time>2024-12-22T16:54:28Z</time>
      </trkpt>
      <trkpt lat="47.40896" lon="-1.30071">
        <ele>22</ele>
        <time>2024-12-22T16:56:44Z</time>
      </trkpt>
      <trkpt lat="47.40927" lon="-1.29992">
        <ele>24</ele>
        <time>2024-12-22T16:58:07Z</time>
      </trkpt>
      <trkpt lat="47.40934" lon="-1.29963">
        <ele>26</ele>
        <time>2024-12-22T16:58:35Z</time>
      </trkpt>
      <trkpt lat="47.4095" lon="-1.2995">
        <ele>26</ele>
        <time>2024-12-22T16:58:59Z</time>
      </trkpt>
      <trkpt lat="47.40995" lon="-1.29956">
        <ele>25</ele>
        <time>2024-12-22T16:59:59Z</time>
      </trkpt>
      <trkpt lat="47.41078" lon="-1.29958">
        <ele>23</ele>
        <time>2024-12-22T17:01:50Z</time>
      </trkpt>
      <trkpt lat="47.41096" lon="-1.29969">
        <ele>22</ele>
        <time>2024-12-22T17:02:16Z</time>
      </trkpt>
      <trkpt lat="47.41109" lon="-1.29996">
        <ele>21</ele>
        <time>2024-12-22T17:02:46Z</time>
      </trkpt>
      <trkpt lat="47.41129" lon="-1.29994">
        <ele>20</ele>
        <time>2024-12-22T17:03:13Z</time>
      </trkpt>
      <trkpt lat="47.41186" lon="-1.29959">
        <ele>20</ele>
        <time>2024-12-22T17:04:35Z</time>
      </trkpt>
      <trkpt lat="47.41267" lon="-1.29916">
        <ele>19</ele>
        <time>2024-12-22T17:06:30Z</time>
      </trkpt>
      <trkpt lat="47.41286" lon="-1.29902">
        <ele>19</ele>
        <time>2024-12-22T17:06:58Z</time>
      </trkpt>
      <trkpt lat="47.41328" lon="-1.2988">
        <ele>18</ele>
        <time>2024-12-22T17:07:58Z</time>
      </trkpt>
      <trkpt lat="47.41367" lon="-1.29854">
        <ele>18</ele>
        <time>2024-12-22T17:08:55Z</time>
      </trkpt>
      <trkpt lat="47.41544" lon="-1.29747">
        <ele>19</ele>
        <time>2024-12-22T17:13:10Z</time>
      </trkpt>
      <trkpt lat="47.41563" lon="-1.29738">
        <ele>19</ele>
        <time>2024-12-22T17:13:37Z</time>
      </trkpt>
      <trkpt lat="47.41601" lon="-1.29714">
        <ele>19</ele>
        <time>2024-12-22T17:14:32Z</time>
      </trkpt>
      <trkpt lat="47.4162" lon="-1.29707">
        <ele>18</ele>
        <time>2024-12-22T17:14:58Z</time>
      </trkpt>
      <trkpt lat="47.41679" lon="-1.29669">
        <ele>18</ele>
        <time>2024-12-22T17:16:24Z</time>
      </trkpt>
      <trkpt lat="47.41763" lon="-1.29623">
        <ele>18</ele>
        <time>2024-12-22T17:18:23Z</time>
      </trkpt>
      <trkpt lat="47.418" lon="-1.29598">
        <ele>19</ele>
        <time>2024-12-22T17:19:18Z</time>
      </trkpt>
      <trkpt lat="47.41839" lon="-1.29577">
        <ele>20</ele>
        <time>2024-12-22T17:20:13Z</time>
      </trkpt>
      <trkpt lat="47.41856" lon="-1.29564">
        <ele>20</ele>
        <time>2024-12-22T17:20:39Z</time>
      </trkpt>
      <trkpt lat="47.41854" lon="-1.29535">
        <ele>21</ele>
        <time>2024-12-22T17:21:05Z</time>
      </trkpt>
      <trkpt lat="47.4182" lon="-1.29383">
        <ele>23</ele>
        <time>2024-12-22T17:23:30Z</time>
      </trkpt>
      <trkpt lat="47.41804" lon="-1.29323">
        <ele>24</ele>
        <time>2024-12-22T17:24:28Z</time>
      </trkpt>
      <trkpt lat="47.41793" lon="-1.29262">
        <ele>24</ele>
        <time>2024-12-22T17:25:25Z</time>
      </trkpt>
      <trkpt lat="47.41785" lon="-1.29234">
        <ele>24</ele>
        <time>2024-12-22T17:25:52Z</time>
      </trkpt>
      <trkpt lat="47.41737" lon="-1.29129">
        <ele>25</ele>
        <time>2024-12-22T17:27:47Z</time>
      </trkpt>
      <trkpt lat="47.41644" lon="-1.28913">
        <ele>29</ele>
        <time>2024-12-22T17:31:38Z</time>
      </trkpt>
      <trkpt lat="47.41631" lon="-1.28888">
        <ele>29</ele>
        <time>2024-12-22T17:32:06Z</time>
      </trkpt>
      <trkpt lat="47.41613" lon="-1.28873">
        <ele>29</ele>
        <time>2024-12-22T17:32:34Z</time>
      </trkpt>
      <trkpt lat="47.41548" lon="-1.28864">
        <ele>29</ele>
        <time>2024-12-22T17:34:01Z</time>
      </trkpt>
      <trkpt lat="47.4142" lon="-1.28839">
        <ele>32</ele>
        <time>2024-12-22T17:36:53Z</time>
      </trkpt>
      <trkpt lat="47.41377" lon="-1.28834">
        <ele>32</ele>
        <time>2024-12-22T17:37:51Z</time>
      </trkpt>
      <trkpt lat="47.41274" lon="-1.28813">
        <ele>33</ele>
        <time>2024-12-22T17:40:10Z</time>
      </trkpt>
      <trkpt lat="47.41212" lon="-1.28804">
        <ele>34</ele>
        <time>2024-12-22T17:41:33Z</time>
      </trkpt>
      <trkpt lat="47.41194" lon="-1.28787">
        <ele>35</ele>
        <time>2024-12-22T17:42:01Z</time>
      </trkpt>
      <trkpt lat="47.41167" lon="-1.28703">
        <ele>36</ele>
        <time>2024-12-22T17:43:25Z</time>
      </trkpt>
      <trkpt lat="47.41154" lon="-1.28676">
        <ele>36</ele>
        <time>2024-12-22T17:43:55Z</time>
      </trkpt>
      <trkpt lat="47.41148" lon="-1.28645">
        <ele>36</ele>
        <time>2024-12-22T17:44:24Z</time>
      </trkpt>
      <trkpt lat="47.41083" lon="-1.28437">
        <ele>34</ele>
        <time>2024-12-22T17:47:51Z</time>
      </trkpt>
      <trkpt lat="47.41065" lon="-1.28421">
        <ele>34</ele>
        <time>2024-12-22T17:48:19Z</time>
      </trkpt>
      <trkpt lat="47.41045" lon="-1.28422">
        <ele>35</ele>
        <time>2024-12-22T17:48:46Z</time>
      </trkpt>
      <trkpt lat="47.40856" lon="-1.28491">
        <ele>33</ele>
        <time>2024-12-22T17:53:06Z</time>
      </trkpt>
      <trkpt lat="47.40813" lon="-1.28502">
        <ele>33</ele>
        <time>2024-12-22T17:54:04Z</time>
      </trkpt>
      <trkpt lat="47.40652" lon="-1.28567">
        <ele>28</ele>
        <time>2024-12-22T17:57:47Z</time>
      </trkpt>
      <trkpt lat="47.40567" lon="-1.28596">
        <ele>26</ele>
        <time>2024-12-22T17:59:43Z</time>
      </trkpt>
      <trkpt lat="47.40545" lon="-1.28606">
        <ele>26</ele>
        <time>2024-12-22T18:00:14Z</time>
      </trkpt>
      <trkpt lat="47.40527" lon="-1.2861">
        <ele>26</ele>
        <time>2024-12-22T18:00:38Z</time>
      </trkpt>
      <trkpt lat="47.40512" lon="-1.28625">
        <ele>26</ele>
        <time>2024-12-22T18:01:02Z</time>
      </trkpt>
      <trkpt lat="47.40503" lon="-1.28654">
        <ele>26</ele>
        <time>2024-12-22T18:01:31Z</time>
      </trkpt>
      <trkpt lat="47.40516" lon="-1.2874">
        <ele>27</ele>
        <time>2024-12-22T18:02:51Z</time>
      </trkpt>
      <trkpt lat="47.40518" lon="-1.2877">
        <ele>28</ele>
        <time>2024-12-22T18:03:18Z</time>
      </trkpt>
      <trkpt lat="47.40538" lon="-1.28892">
        <ele>31</ele>
        <time>2024-12-22T18:05:11Z</time>
      </trkpt>
      <trkpt lat="47.4054" lon="-1.28957">
        <ele>31</ele>
        <time>2024-12-22T18:06:10Z</time>
      </trkpt>
      <trkpt lat="47.40544" lon="-1.28989">
        <ele>30</ele>
        <time>2024-12-22T18:06:39Z</time>
      </trkpt>
      <trkpt lat="47.40557" lon="-1.29051">
        <ele>31</ele>
        <time>2024-12-22T18:07:38Z</time>
      </trkpt>
      <trkpt lat="47.40574" lon="-1.29197">
        <ele>33</ele>
        <time>2024-12-22T18:09:52Z</time>
      </trkpt>
      <trkpt lat="47.4059" lon="-1.29292">
        <ele>34</ele>
        <time>2024-12-22T18:11:20Z</time>
      </trkpt>
      <trkpt lat="47.40604" lon="-1.29422">
        <ele>34</ele>
        <time>2024-12-22T18:13:19Z</time>
      </trkpt>
      <trkpt lat="47.40619" lon="-1.29516">
        <ele>34</ele>
        <time>2024-12-22T18:14:46Z</time>
      </trkpt>
      <trkpt lat="47.40631" lon="-1.2961">
        <ele>33</ele>
        <time>2024-12-22T18:16:13Z</time>
      </trkpt>
      <trkpt lat="47.40633" lon="-1.29642">
        <ele>33</ele>
        <time>2024-12-22T18:16:42Z</time>
      </trkpt>
      <trkpt lat="47.40643" lon="-1.29703">
        <ele>32</ele>
        <time>2024-12-22T18:17:38Z</time>
      </trkpt>
      <trkpt lat="47.40651" lon="-1.29796">
        <ele>31</ele>
        <time>2024-12-22T18:19:03Z</time>
      </trkpt>
      <trkpt lat="47.40634" lon="-1.29817">
        <ele>31</ele>
        <time>2024-12-22T18:19:33Z</time>
      </trkpt>
      <trkpt lat="47.40574" lon="-1.29827">
        <ele>30</ele>
        <time>2024-12-22T18:20:53Z</time>
      </trkpt>
      <trkpt lat="47.40552" lon="-1.29835">
        <ele>30</ele>
        <time>2024-12-22T18:21:24Z</time>
      </trkpt>
      <trkpt lat="47.40512" lon="-1.29841">
        <ele>31</ele>
        <time>2024-12-22T18:22:17Z</time>
      </trkpt>
      <trkpt lat="47.40468" lon="-1.29853">
        <ele>29</ele>
        <time>2024-12-22T18:23:17Z</time>
      </trkpt>
      <trkpt lat="47.40425" lon="-1.2986">
        <ele>28</ele>
        <time>2024-12-22T18:24:15Z</time>
      </trkpt>
      <trkpt lat="47.40383" lon="-1.2987">
        <ele>26</ele>
        <time>2024-12-22T18:25:11Z</time>
      </trkpt>
      <trkpt lat="47.40281" lon="-1.29885">
        <ele>24</ele>
        <time>2024-12-22T18:27:28Z</time>
      </trkpt>
      <trkpt lat="47.40263" lon="-1.29891">
        <ele>25</ele>
        <time>2024-12-22T18:27:53Z</time>
      </trkpt>
      <trkpt lat="47.40219" lon="-1.29893">
        <ele>24</ele>
        <time>2024-12-22T18:28:52Z</time>
      </trkpt>
      <trkpt lat="47.40069" lon="-1.29922">
        <ele>19</ele>
        <time>2024-12-22T18:32:13Z</time>
      </trkpt>
      <trkpt lat="47.40005" lon="-1.29928">
        <ele>16</ele>
        <time>2024-12-22T18:33:39Z</time>
      </trkpt>
      <trkpt lat="47.39986" lon="-1.29934">
        <ele>16</ele>
        <time>2024-12-22T18:34:05Z</time>
      </trkpt>
      <trkpt lat="47.39965" lon="-1.29946">
        <ele>16</ele>
        <time>2024-12-22T18:34:35Z</time>
      </trkpt>
      <trkpt lat="47.39934" lon="-1.29987">
        <ele>15</ele>
        <time>2024-12-22T18:35:31Z</time>
      </trkpt>
      <trkpt lat="47.39901" lon="-1.30023">
        <ele>15</ele>
        <time>2024-12-22T18:36:25Z</time>
      </trkpt>
      <trkpt lat="47.39881" lon="-1.30039">
        <ele>14</ele>
        <time>2024-12-22T18:36:56Z</time>
      </trkpt>
      <trkpt lat="47.39862" lon="-1.30046">
        <ele>15</ele>
        <time>2024-12-22T18:37:22Z</time>
      </trkpt>
      <trkpt lat="47.3984" lon="-1.30042">
        <ele>15</ele>
        <time>2024-12-22T18:37:51Z</time>
      </trkpt>
      <trkpt lat="47.39819" lon="-1.30032">
        <ele>15</ele>
        <time>2024-12-22T18:38:21Z</time>
      </trkpt>
      <trkpt lat="47.39801" lon="-1.30011">
        <ele>15</ele>
        <time>2024-12-22T18:38:51Z</time>
      </trkpt>
      <trkpt lat="47.39774" lon="-1.29965">
        <ele>16</ele>
        <time>2024-12-22T18:39:46Z</time>
      </trkpt>
      <trkpt lat="47.3974" lon="-1.29862">
        <ele>20</ele>
        <time>2024-12-22T18:41:30Z</time>
      </trkpt>
      <trkpt lat="47.39688" lon="-1.29815">
        <ele>27</ele>
        <time>2024-12-22T18:42:51Z</time>
      </trkpt>
      <trkpt lat="47.39641" lon="-1.29758">
        <ele>31</ele>
        <time>2024-12-22T18:44:12Z</time>
      </trkpt>
      <trkpt lat="47.39605" lon="-1.29723">
        <ele>33</ele>
        <time>2024-12-22T18:45:10Z</time>
      </trkpt>
      <trkpt lat="47.39573" lon="-1.29683">
        <ele>32</ele>
        <time>2024-12-22T18:46:06Z</time>
      </trkpt>
      <trkpt lat="47.39554" lon="-1.29667">
        <ele>32</ele>
        <time>2024-12-22T18:46:35Z</time>
      </trkpt>
      <trkpt lat="47.39516" lon="-1.29641">
        <ele>32</ele>
        <time>2024-12-22T18:47:31Z</time>
      </trkpt>
      <trkpt lat="47.39553" lon="-1.29663">
        <ele>32</ele>
        <time>2024-12-22T18:48:24Z</time>
      </trkpt>
      <trkpt lat="47.39587" lon="-1.29698">
        <ele>32</ele>
        <time>2024-12-22T18:49:19Z</time>
      </trkpt>
      <trkpt lat="47.39601" lon="-1.29719">
        <ele>33</ele>
        <time>2024-12-22T18:49:46Z</time>
      </trkpt>
      <trkpt lat="47.39639" lon="-1.29753">
        <ele>32</ele>
        <time>2024-12-22T18:50:45Z</time>
      </trkpt>
      <trkpt lat="47.39691" lon="-1.29814">
        <ele>27</ele>
        <time>2024-12-22T18:52:14Z</time>
      </trkpt>
      <trkpt lat="47.39728" lon="-1.29851">
        <ele>22</ele>
        <time>2024-12-22T18:53:14Z</time>
      </trkpt>
      <trkpt lat="47.39743" lon="-1.29874">
        <ele>20</ele>
        <time>2024-12-22T18:53:42Z</time>
      </trkpt>
      <trkpt lat="47.39752" lon="-1.29903">
        <ele>19</ele>
        <time>2024-12-22T18:54:11Z</time>
      </trkpt>
      <trkpt lat="47.39765" lon="-1.29933">
        <ele>17</ele>
        <time>2024-12-22T18:54:43Z</time>
      </trkpt>
      <trkpt lat="47.39766" lon="-1.29962">
        <ele>16</ele>
        <time>2024-12-22T18:55:10Z</time>
      </trkpt>
      <trkpt lat="47.39752" lon="-1.29982">
        <ele>14</ele>
        <time>2024-12-22T18:55:36Z</time>
      </trkpt>
      <trkpt lat="47.39713" lon="-1.30009">
        <ele>13</ele>
        <time>2024-12-22T18:56:33Z</time>
      </trkpt>
      <trkpt lat="47.3969" lon="-1.30017">
        <ele>13</ele>
        <time>2024-12-22T18:57:05Z</time>
      </trkpt>
      <trkpt lat="47.39676" lon="-1.30036">
        <ele>14</ele>
        <time>2024-12-22T18:57:30Z</time>
      </trkpt>
      <trkpt lat="47.39669" lon="-1.30062">
        <ele>15</ele>
        <time>2024-12-22T18:57:55Z</time>
      </trkpt>
      <trkpt lat="47.39682" lon="-1.3012">
        <ele>17</ele>
        <time>2024-12-22T18:58:50Z</time>
      </trkpt>
      <trkpt lat="47.39693" lon="-1.30145">
        <ele>18</ele>
        <time>2024-12-22T18:59:17Z</time>
      </trkpt>
      <trkpt lat="47.39701" lon="-1.30172">
        <ele>19</ele>
        <time>2024-12-22T18:59:44Z</time>
      </trkpt>
      <trkpt lat="47.39701" lon="-1.30205">
        <ele>20</ele>
        <time>2024-12-22T19:00:14Z</time>
      </trkpt>
      <trkpt lat="47.39675" lon="-1.30254">
        <ele>23</ele>
        <time>2024-12-22T19:01:10Z</time>
      </trkpt>
      <trkpt lat="47.39666" lon="-1.3028">
        <ele>25</ele>
        <time>2024-12-22T19:01:36Z</time>
      </trkpt>
      <trkpt lat="47.39662" lon="-1.30309">
        <ele>26</ele>
        <time>2024-12-22T19:02:03Z</time>
      </trkpt>
      <trkpt lat="47.39687" lon="-1.30545">
        <ele>33</ele>
        <time>2024-12-22T19:05:39Z</time>
      </trkpt>
      <trkpt lat="47.39689" lon="-1.30637">
        <ele>35</ele>
        <time>2024-12-22T19:07:02Z</time>
      </trkpt>
      <trkpt lat="47.39686" lon="-1.30729">
        <ele>37</ele>
        <time>2024-12-22T19:08:25Z</time>
      </trkpt>
      <trkpt lat="47.39697" lon="-1.30823">
        <ele>38</ele>
        <time>2024-12-22T19:09:51Z</time>
      </trkpt>
      <trkpt lat="47.39692" lon="-1.30854">
        <ele>39</ele>
        <time>2024-12-22T19:10:20Z</time>
      </trkpt>
      <trkpt lat="47.39638" lon="-1.31019">
        <ele>43</ele>
        <time>2024-12-22T19:13:06Z</time>
      </trkpt>
      <trkpt lat="47.39622" lon="-1.31039">
        <ele>43</ele>
        <time>2024-12-22T19:13:34Z</time>
      </trkpt>
      <trkpt lat="47.39563" lon="-1.31068">
        <ele>45</ele>
        <time>2024-12-22T19:14:57Z</time>
      </trkpt>
      <trkpt lat="47.3953" lon="-1.31101">
        <ele>46</ele>
        <time>2024-12-22T19:15:50Z</time>
      </trkpt>
      <trkpt lat="47.3952" lon="-1.31129">
        <ele>46</ele>
        <time>2024-12-22T19:16:19Z</time>
      </trkpt>
      <trkpt lat="47.39514" lon="-1.31157">
        <ele>46</ele>
        <time>2024-12-22T19:16:45Z</time>
      </trkpt>
      <trkpt lat="47.3951" lon="-1.31189">
        <ele>47</ele>
        <time>2024-12-22T19:17:14Z</time>
      </trkpt>
      <trkpt lat="47.39493" lon="-1.31277">
        <ele>46</ele>
        <time>2024-12-22T19:18:37Z</time>
      </trkpt>
      <trkpt lat="47.39487" lon="-1.31337">
        <ele>45</ele>
        <time>2024-12-22T19:19:32Z</time>
      </trkpt>
      <trkpt lat="47.39462" lon="-1.31458">
        <ele>39</ele>
        <time>2024-12-22T19:21:26Z</time>
      </trkpt>
      <trkpt lat="47.39459" lon="-1.31489">
        <ele>38</ele>
        <time>2024-12-22T19:21:55Z</time>
      </trkpt>
      <trkpt lat="47.39465" lon="-1.3152">
        <ele>38</ele>
        <time>2024-12-22T19:22:24Z</time>
      </trkpt>
      <trkpt lat="47.39487" lon="-1.31575">
        <ele>38</ele>
        <time>2024-12-22T19:23:21Z</time>
      </trkpt>
      <trkpt lat="47.39574" lon="-1.31827">
        <ele>38</ele>
        <time>2024-12-22T19:27:37Z</time>
      </trkpt>
      <trkpt lat="47.39615" lon="-1.31938">
        <ele>35</ele>
        <time>2024-12-22T19:29:31Z</time>
      </trkpt>
      <trkpt lat="47.39633" lon="-1.31995">
        <ele>34</ele>
        <time>2024-12-22T19:30:28Z</time>
      </trkpt>
      <trkpt lat="47.39645" lon="-1.32022">
        <ele>33</ele>
        <time>2024-12-22T19:30:57Z</time>
      </trkpt>
      <trkpt lat="47.39672" lon="-1.3211">
        <ele>34</ele>
        <time>2024-12-22T19:32:24Z</time>
      </trkpt>
      <trkpt lat="47.3977" lon="-1.32388">
        <ele>37</ele>
        <time>2024-12-22T19:37:08Z</time>
      </trkpt>
      <trkpt lat="47.39814" lon="-1.32524">
        <ele>38</ele>
        <time>2024-12-22T19:39:24Z</time>
      </trkpt>
      <trkpt lat="47.39845" lon="-1.32607">
        <ele>40</ele>
        <time>2024-12-22T19:40:49Z</time>
      </trkpt>
      <trkpt lat="47.39854" lon="-1.32639">
        <ele>40</ele>
        <time>2024-12-22T19:41:21Z</time>
      </trkpt>
      <trkpt lat="47.39871" lon="-1.32731">
        <ele>40</ele>
        <time>2024-12-22T19:42:47Z</time>
      </trkpt>
      <trkpt lat="47.3988" lon="-1.32759">
        <ele>40</ele>
        <time>2024-12-22T19:43:15Z</time>
      </trkpt>
      <trkpt lat="47.39964" lon="-1.3298">
        <ele>37</ele>
        <time>2024-12-22T19:47:04Z</time>
      </trkpt>
      <trkpt lat="47.39999" lon="-1.33062">
        <ele>36</ele>
        <time>2024-12-22T19:48:31Z</time>
      </trkpt>
      <trkpt lat="47.40008" lon="-1.33093">
        <ele>35</ele>
        <time>2024-12-22T19:49:02Z</time>
      </trkpt>
      <trkpt lat="47.40061" lon="-1.33224">
        <ele>36</ele>
        <time>2024-12-22T19:51:20Z</time>
      </trkpt>
      <trkpt lat="47.40105" lon="-1.33293">
        <ele>36</ele>
        <time>2024-12-22T19:52:45Z</time>
      </trkpt>
      <trkpt lat="47.40117" lon="-1.33316">
        <ele>37</ele>
        <time>2024-12-22T19:53:11Z</time>
      </trkpt>
      <trkpt lat="47.40191" lon="-1.33366">
        <ele>36</ele>
        <time>2024-12-22T19:55:00Z</time>
      </trkpt>
      <trkpt lat="47.402" lon="-1.33389">
        <ele>37</ele>
        <time>2024-12-22T19:55:24Z</time>
      </trkpt>
      <trkpt lat="47.40192" lon="-1.33414">
        <ele>39</ele>
        <time>2024-12-22T19:55:49Z</time>
      </trkpt>
      <trkpt lat="47.40181" lon="-1.33438">
        <ele>40</ele>
        <time>2024-12-22T19:56:15Z</time>
      </trkpt>
      <trkpt lat="47.40177" lon="-1.33498">
        <ele>43</ele>
        <time>2024-12-22T19:57:10Z</time>
      </trkpt>
      <trkpt lat="47.40178" lon="-1.33561">
        <ele>43</ele>
        <time>2024-12-22T19:58:07Z</time>
      </trkpt>
      <trkpt lat="47.40174" lon="-1.33594">
        <ele>43</ele>
        <time>2024-12-22T19:58:37Z</time>
      </trkpt>
      <trkpt lat="47.40077" lon="-1.33799">
        <ele>44</ele>
        <time>2024-12-22T20:02:23Z</time>
      </trkpt>
      <trkpt lat="47.40067" lon="-1.33826">
        <ele>44</ele>
        <time>2024-12-22T20:02:51Z</time>
      </trkpt>
      <trkpt lat="47.40064" lon="-1.33857">
        <ele>44</ele>
        <time>2024-12-22T20:03:19Z</time>
      </trkpt>
      <trkpt lat="47.40066" lon="-1.33887">
        <ele>44</ele>
        <time>2024-12-22T20:03:46Z</time>
      </trkpt>
      <trkpt lat="47.40077" lon="-1.33948">
        <ele>43</ele>
        <time>2024-12-22T20:04:43Z</time>
      </trkpt>
      <trkpt lat="47.4008" lon="-1.33979">
        <ele>42</ele>
        <time>2024-12-22T20:05:11Z</time>
      </trkpt>
      <trkpt lat="47.40093" lon="-1.34039">
        <ele>39</ele>
        <time>2024-12-22T20:06:08Z</time>
      </trkpt>
      <trkpt lat="47.40102" lon="-1.34066">
        <ele>37</ele>
        <time>2024-12-22T20:06:35Z</time>
      </trkpt>
      <trkpt lat="47.40114" lon="-1.34088">
        <ele>36</ele>
        <time>2024-12-22T20:07:01Z</time>
      </trkpt>
      <trkpt lat="47.40137" lon="-1.34143">
        <ele>33</ele>
        <time>2024-12-22T20:07:59Z</time>
      </trkpt>
      <trkpt lat="47.40152" lon="-1.34167">
        <ele>32</ele>
        <time>2024-12-22T20:08:29Z</time>
      </trkpt>
      <trkpt lat="47.40176" lon="-1.34222">
        <ele>30</ele>
        <time>2024-12-22T20:09:28Z</time>
      </trkpt>
      <trkpt lat="47.40203" lon="-1.34308">
        <ele>28</ele>
        <time>2024-12-22T20:10:54Z</time>
      </trkpt>
      <trkpt lat="47.40213" lon="-1.34333">
        <ele>28</ele>
        <time>2024-12-22T20:11:20Z</time>
      </trkpt>
      <trkpt lat="47.40216" lon="-1.34364">
        <ele>29</ele>
        <time>2024-12-22T20:11:48Z</time>
      </trkpt>
      <trkpt lat="47.40178" lon="-1.34395">
        <ele>30</ele>
        <time>2024-12-22T20:12:46Z</time>
      </trkpt>
      <trkpt lat="47.40159" lon="-1.34414">
        <ele>30</ele>
        <time>2024-12-22T20:13:17Z</time>
      </trkpt>
      <trkpt lat="47.40144" lon="-1.34436">
        <ele>31</ele>
        <time>2024-12-22T20:13:45Z</time>
      </trkpt>
      <trkpt lat="47.40143" lon="-1.34466">
        <ele>31</ele>
        <time>2024-12-22T20:14:12Z</time>
      </trkpt>
      <trkpt lat="47.40155" lon="-1.34521">
        <ele>31</ele>
        <time>2024-12-22T20:15:04Z</time>
      </trkpt>
      <trkpt lat="47.40165" lon="-1.34675">
        <ele>33</ele>
        <time>2024-12-22T20:17:24Z</time>
      </trkpt>
      <trkpt lat="47.40183" lon="-1.34792">
        <ele>34</ele>
        <time>2024-12-22T20:19:12Z</time>
      </trkpt>
      <trkpt lat="47.40214" lon="-1.34967">
        <ele>36</ele>
        <time>2024-12-22T20:21:56Z</time>
      </trkpt>
      <trkpt lat="47.40223" lon="-1.34995">
        <ele>36</ele>
        <time>2024-12-22T20:22:24Z</time>
      </trkpt>
      <trkpt lat="47.4023" lon="-1.35056">
        <ele>36</ele>
        <time>2024-12-22T20:23:20Z</time>
      </trkpt>
      <trkpt lat="47.40238" lon="-1.35088">
        <ele>36</ele>
        <time>2024-12-22T20:23:50Z</time>
      </trkpt>
      <trkpt lat="47.40247" lon="-1.35148">
        <ele>35</ele>
        <time>2024-12-22T20:24:46Z</time>
      </trkpt>
      <trkpt lat="47.40254" lon="-1.35176">
        <ele>34</ele>
        <time>2024-12-22T20:25:13Z</time>
      </trkpt>
      <trkpt lat="47.40273" lon="-1.35178">
        <ele>33</ele>
        <time>2024-12-22T20:25:38Z</time>
      </trkpt>
      <trkpt lat="47.40435" lon="-1.3507">
        <ele>35</ele>
        <time>2024-12-22T20:29:35Z</time>
      </trkpt>
      <trkpt lat="47.40456" lon="-1.35059">
        <ele>35</ele>
        <time>2024-12-22T20:30:05Z</time>
      </trkpt>
      <trkpt lat="47.40512" lon="-1.35017">
        <ele>36</ele>
        <time>2024-12-22T20:31:29Z</time>
      </trkpt>
      <trkpt lat="47.40554" lon="-1.34994">
        <ele>35</ele>
        <time>2024-12-22T20:32:29Z</time>
      </trkpt>
      <trkpt lat="47.40574" lon="-1.34998">
        <ele>34</ele>
        <time>2024-12-22T20:32:56Z</time>
      </trkpt>
      <trkpt lat="47.40613" lon="-1.3507">
        <ele>33</ele>
        <time>2024-12-22T20:34:19Z</time>
      </trkpt>
      <trkpt lat="47.4063" lon="-1.3508">
        <ele>33</ele>
        <time>2024-12-22T20:34:43Z</time>
      </trkpt>
      <trkpt lat="47.40672" lon="-1.35058">
        <ele>32</ele>
        <time>2024-12-22T20:35:43Z</time>
      </trkpt>
      <trkpt lat="47.40763" lon="-1.34975">
        <ele>29</ele>
        <time>2024-12-22T20:38:06Z</time>
      </trkpt>
      <trkpt lat="47.40839" lon="-1.34912">
        <ele>31</ele>
        <time>2024-12-22T20:40:02Z</time>
      </trkpt>
      <trkpt lat="47.40877" lon="-1.34885">
        <ele>33</ele>
        <time>2024-12-22T20:40:58Z</time>
      </trkpt>
      <trkpt lat="47.40893" lon="-1.34868">
        <ele>34</ele>
        <time>2024-12-22T20:41:24Z</time>
      </trkpt>
      <trkpt lat="47.40928" lon="-1.34838">
        <ele>35</ele>
        <time>2024-12-22T20:42:18Z</time>
      </trkpt>
      <trkpt lat="47.40947" lon="-1.34825">
        <ele>36</ele>
        <time>2024-12-22T20:42:46Z</time>
      </trkpt>
      <trkpt lat="47.40966" lon="-1.34824">
        <ele>37</ele>
        <time>2024-12-22T20:43:12Z</time>
      </trkpt>
      <trkpt lat="47.4099" lon="-1.34873">
        <ele>37</ele>
        <time>2024-12-22T20:44:06Z</time>
      </trkpt>
      <trkpt lat="47.4101" lon="-1.34922">
        <ele>37</ele>
        <time>2024-12-22T20:44:58Z</time>
      </trkpt>
      <trkpt lat="47.41086" lon="-1.35071">
        <ele>40</ele>
        <time>2024-12-22T20:47:47Z</time>
      </trkpt>
      <trkpt lat="47.41116" lon="-1.3515">
        <ele>40</ele>
        <time>2024-12-22T20:49:08Z</time>
      </trkpt>
      <trkpt lat="47.41134" lon="-1.35146">
        <ele>40</ele>
        <time>2024-12-22T20:49:33Z</time>
      </trkpt>
      <trkpt lat="47.41166" lon="-1.35106">
        <ele>41</ele>
        <time>2024-12-22T20:50:29Z</time>
      </trkpt>
      <trkpt lat="47.41195" lon="-1.35062">
        <ele>40</ele>
        <time>2024-12-22T20:51:24Z</time>
      </trkpt>
      <trkpt lat="47.41207" lon="-1.35038">
        <ele>40</ele>
        <time>2024-12-22T20:51:51Z</time>
      </trkpt>
      <trkpt lat="47.41258" lon="-1.34907">
        <ele>37</ele>
        <time>2024-12-22T20:54:07Z</time>
      </trkpt>
      <trkpt lat="47.41272" lon="-1.34883">
        <ele>37</ele>
        <time>2024-12-22T20:54:36Z</time>
      </trkpt>
      <trkpt lat="47.41304" lon="-1.34839">
        <ele>37</ele>
        <time>2024-12-22T20:55:34Z</time>
      </trkpt>
      <trkpt lat="47.41324" lon="-1.34855">
        <ele>37</ele>
        <time>2024-12-22T20:56:05Z</time>
      </trkpt>
      <trkpt lat="47.41337" lon="-1.34877">
        <ele>37</ele>
        <time>2024-12-22T20:56:31Z</time>
      </trkpt>
      <trkpt lat="47.41352" lon="-1.34897">
        <ele>36</ele>
        <time>2024-12-22T20:56:58Z</time>
      </trkpt>
      <trkpt lat="47.41369" lon="-1.34914">
        <ele>36</ele>
        <time>2024-12-22T20:57:26Z</time>
      </trkpt>
      <trkpt lat="47.41385" lon="-1.34937">
        <ele>35</ele>
        <time>2024-12-22T20:57:55Z</time>
      </trkpt>
      <trkpt lat="47.4141" lon="-1.34984">
        <ele>35</ele>
        <time>2024-12-22T20:58:49Z</time>
      </trkpt>
      <trkpt lat="47.41468" lon="-1.35074">
        <ele>35</ele>
        <time>2024-12-22T21:00:42Z</time>
      </trkpt>
      <trkpt lat="47.41604" lon="-1.35267">
        <ele>39</ele>
        <time>2024-12-22T21:04:53Z</time>
      </trkpt>
      <trkpt lat="47.4163" lon="-1.35312">
        <ele>39</ele>
        <time>2024-12-22T21:05:47Z</time>
      </trkpt>
      <trkpt lat="47.4162" lon="-1.35336">
        <ele>40</ele>
        <time>2024-12-22T21:06:12Z</time>
      </trkpt>
      <trkpt lat="47.41584" lon="-1.35371">
        <ele>40</ele>
        <time>2024-12-22T21:07:10Z</time>
      </trkpt>
      <trkpt lat="47.41551" lon="-1.35412">
        <ele>40</ele>
        <time>2024-12-22T21:08:07Z</time>
      </trkpt>
      <trkpt lat="47.41534" lon="-1.35429">
        <ele>39</ele>
        <time>2024-12-22T21:08:34Z</time>
      </trkpt>
      <trkpt lat="47.41518" lon="-1.35449">
        <ele>39</ele>
        <time>2024-12-22T21:09:02Z</time>
      </trkpt>
      <trkpt lat="47.41457" lon="-1.35539">
        <ele>39</ele>
        <time>2024-12-22T21:10:57Z</time>
      </trkpt>
      <trkpt lat="47.41259" lon="-1.3593">
        <ele>41</ele>
        <time>2024-12-22T21:18:18Z</time>
      </trkpt>
      <trkpt lat="47.41238" lon="-1.35984">
        <ele>41</ele>
        <time>2024-12-22T21:19:15Z</time>
      </trkpt>
      <trkpt lat="47.41198" lon="-1.36057">
        <ele>41</ele>
        <time>2024-12-22T21:20:40Z</time>
      </trkpt>
      <trkpt lat="47.41183" lon="-1.36079">
        <ele>41</ele>
        <time>2024-12-22T21:21:08Z</time>
      </trkpt>
      <trkpt lat="47.41171" lon="-1.36108">
        <ele>42</ele>
        <time>2024-12-22T21:21:38Z</time>
      </trkpt>
      <trkpt lat="47.41143" lon="-1.36155">
        <ele>43</ele>
        <time>2024-12-22T21:22:35Z</time>
      </trkpt>
      <trkpt lat="47.41096" lon="-1.36262">
        <ele>44</ele>
        <time>2024-12-22T21:24:30Z</time>
      </trkpt>
      <trkpt lat="47.4108" lon="-1.36288">
        <ele>45</ele>
        <time>2024-12-22T21:25:02Z</time>
      </trkpt>
      <trkpt lat="47.41039" lon="-1.36366">
        <ele>44</ele>
        <time>2024-12-22T21:26:31Z</time>
      </trkpt>
      <trkpt lat="47.40992" lon="-1.36468">
        <ele>44</ele>
        <time>2024-12-22T21:28:23Z</time>
      </trkpt>
      <trkpt lat="47.40936" lon="-1.36566">
        <ele>44</ele>
        <time>2024-12-22T21:30:18Z</time>
      </trkpt>
      <trkpt lat="47.40925" lon="-1.36593">
        <ele>43</ele>
        <time>2024-12-22T21:30:47Z</time>
      </trkpt>
      <trkpt lat="47.40897" lon="-1.36641">
        <ele>43</ele>
        <time>2024-12-22T21:31:44Z</time>
      </trkpt>
      <trkpt lat="47.40885" lon="-1.3667">
        <ele>43</ele>
        <time>2024-12-22T21:32:15Z</time>
      </trkpt>
      <trkpt lat="47.40872" lon="-1.36691">
        <ele>43</ele>
        <time>2024-12-22T21:32:40Z</time>
      </trkpt>
      <trkpt lat="47.4086" lon="-1.36719">
        <ele>42</ele>
        <time>2024-12-22T21:33:10Z</time>
      </trkpt>
      <trkpt lat="47.40835" lon="-1.36761">
        <ele>41</ele>
        <time>2024-12-22T21:34:01Z</time>
      </trkpt>
      <trkpt lat="47.40818" lon="-1.36777">
        <ele>41</ele>
        <time>2024-12-22T21:34:28Z</time>
      </trkpt>
      <trkpt lat="47.40771" lon="-1.36844">
        <ele>39</ele>
        <time>2024-12-22T21:35:55Z</time>
      </trkpt>
      <trkpt lat="47.40752" lon="-1.36863">
        <ele>39</ele>
        <time>2024-12-22T21:36:26Z</time>
      </trkpt>
      <trkpt lat="47.4074" lon="-1.36885">
        <ele>38</ele>
        <time>2024-12-22T21:36:51Z</time>
      </trkpt>
      <trkpt lat="47.40772" lon="-1.36921">
        <ele>39</ele>
        <time>2024-12-22T21:37:45Z</time>
      </trkpt>
      <trkpt lat="47.40792" lon="-1.36932">
        <ele>40</ele>
        <time>2024-12-22T21:38:13Z</time>
      </trkpt>
      <trkpt lat="47.40828" lon="-1.3696">
        <ele>41</ele>
        <time>2024-12-22T21:39:08Z</time>
      </trkpt>
      <trkpt lat="47.40848" lon="-1.36961">
        <ele>42</ele>
        <time>2024-12-22T21:39:34Z</time>
      </trkpt>
      <trkpt lat="47.40859" lon="-1.36988">
        <ele>42</ele>
        <time>2024-12-22T21:40:03Z</time>
      </trkpt>
      <trkpt lat="47.40879" lon="-1.3711">
        <ele>42</ele>
        <time>2024-12-22T21:41:56Z</time>
      </trkpt>
      <trkpt lat="47.40882" lon="-1.37142">
        <ele>42</ele>
        <time>2024-12-22T21:42:25Z</time>
      </trkpt>
      <trkpt lat="47.4087" lon="-1.37169">
        <ele>41</ele>
        <time>2024-12-22T21:42:54Z</time>
      </trkpt>
      <trkpt lat="47.40857" lon="-1.3719">
        <ele>40</ele>
        <time>2024-12-22T21:43:20Z</time>
      </trkpt>
      <trkpt lat="47.40801" lon="-1.37211">
        <ele>37</ele>
        <time>2024-12-22T21:44:37Z</time>
      </trkpt>
      <trkpt lat="47.40758" lon="-1.3723">
        <ele>36</ele>
        <time>2024-12-22T21:45:37Z</time>
      </trkpt>
      <trkpt lat="47.40695" lon="-1.37249">
        <ele>34</ele>
        <time>2024-12-22T21:47:03Z</time>
      </trkpt>
      <trkpt lat="47.40684" lon="-1.37272">
        <ele>33</ele>
        <time>2024-12-22T21:47:28Z</time>
      </trkpt>
    </trkseg>
  </trk>
  <trk>
    <name><![CDATA[Ligne_StPhilbert_20.5km-8321596]]></name>
    <extensions>
      <line xmlns="http://www.topografix.com/GPX/gpx_style/0/2">
        <color>ff8040</color>
        <width>4</width>
      </line>
    </extensions>
    <trkseg>
      <trkpt lat="47.41218" lon="-1.37696">
        <ele>38</ele>
        <time>2024-12-22T14:37:07Z</time>
      </trkpt>
      <trkpt lat="47.41095" lon="-1.37556">
        <ele>38</ele>
        <time>2024-12-22T14:40:34Z</time>
      </trkpt>
      <trkpt lat="47.40885" lon="-1.3718">
        <ele>41</ele>
        <time>2024-12-22T14:47:54Z</time>
      </trkpt>
      <trkpt lat="47.40848" lon="-1.36992">
        <ele>41</ele>
        <time>2024-12-22T14:50:51Z</time>
      </trkpt>
      <trkpt lat="47.40737" lon="-1.36846">
        <ele>39</ele>
        <time>2024-12-22T14:54:10Z</time>
      </trkpt>
      <trkpt lat="47.41247" lon="-1.3596">
        <ele>41</ele>
        <time>2024-12-22T15:11:40Z</time>
      </trkpt>
      <trkpt lat="47.41448" lon="-1.35559">
        <ele>39</ele>
        <time>2024-12-22T15:19:11Z</time>
      </trkpt>
      <trkpt lat="47.41641" lon="-1.35311">
        <ele>39</ele>
        <time>2024-12-22T15:24:52Z</time>
      </trkpt>
      <trkpt lat="47.41308" lon="-1.34789">
        <ele>36</ele>
        <time>2024-12-22T15:35:40Z</time>
      </trkpt>
      <trkpt lat="47.41534" lon="-1.34576">
        <ele>33</ele>
        <time>2024-12-22T15:41:37Z</time>
      </trkpt>
      <trkpt lat="47.41752" lon="-1.3403">
        <ele>31</ele>
        <time>2024-12-22T15:51:10Z</time>
      </trkpt>
      <trkpt lat="47.41571" lon="-1.33818">
        <ele>29</ele>
        <time>2024-12-22T15:56:18Z</time>
      </trkpt>
      <trkpt lat="47.41407" lon="-1.32816">
        <ele>32</ele>
        <time>2024-12-22T16:11:49Z</time>
      </trkpt>
      <trkpt lat="47.41234" lon="-1.30571">
        <ele>23</ele>
        <time>2024-12-22T16:45:49Z</time>
      </trkpt>
      <trkpt lat="47.40815" lon="-1.30656">
        <ele>28</ele>
        <time>2024-12-22T16:55:14Z</time>
      </trkpt>
      <trkpt lat="47.40803" lon="-1.30358">
        <ele>17</ele>
        <time>2024-12-22T16:59:43Z</time>
      </trkpt>
      <trkpt lat="47.40852" lon="-1.30194">
        <ele>16</ele>
        <time>2024-12-22T17:02:25Z</time>
      </trkpt>
      <trkpt lat="47.40943" lon="-1.30158">
        <ele>18</ele>
        <time>2024-12-22T17:04:31Z</time>
      </trkpt>
      <trkpt lat="47.40914" lon="-1.29952">
        <ele>26</ele>
        <time>2024-12-22T17:07:41Z</time>
      </trkpt>
      <trkpt lat="47.41095" lon="-1.29958">
        <ele>23</ele>
        <time>2024-12-22T17:11:43Z</time>
      </trkpt>
      <trkpt lat="47.41132" lon="-1.30012">
        <ele>20</ele>
        <time>2024-12-22T17:12:52Z</time>
      </trkpt>
      <trkpt lat="47.41855" lon="-1.29575">
        <ele>20</ele>
        <time>2024-12-22T17:30:15Z</time>
      </trkpt>
      <trkpt lat="47.41797" lon="-1.29266">
        <ele>24</ele>
        <time>2024-12-22T17:35:04Z</time>
      </trkpt>
      <trkpt lat="47.41612" lon="-1.28853">
        <ele>29</ele>
        <time>2024-12-22T17:42:31Z</time>
      </trkpt>
      <trkpt lat="47.41202" lon="-1.28798">
        <ele>35</ele>
        <time>2024-12-22T17:51:41Z</time>
      </trkpt>
      <trkpt lat="47.4107" lon="-1.28416">
        <ele>34</ele>
        <time>2024-12-22T17:58:08Z</time>
      </trkpt>
      <trkpt lat="47.40495" lon="-1.28641">
        <ele>26</ele>
        <time>2024-12-22T18:11:22Z</time>
      </trkpt>
      <trkpt lat="47.40652" lon="-1.29794">
        <ele>31</ele>
        <time>2024-12-22T18:29:04Z</time>
      </trkpt>
      <trkpt lat="47.39986" lon="-1.29933">
        <ele>16</ele>
        <time>2024-12-22T18:44:02Z</time>
      </trkpt>
      <trkpt lat="47.39871" lon="-1.30061">
        <ele>14</ele>
        <time>2024-12-22T18:47:14Z</time>
      </trkpt>
      <trkpt lat="47.39776" lon="-1.29976">
        <ele>15</ele>
        <time>2024-12-22T18:49:42Z</time>
      </trkpt>
      <trkpt lat="47.3971" lon="-1.29933">
        <ele>17</ele>
        <time>2024-12-22T18:51:18Z</time>
      </trkpt>
      <trkpt lat="47.39673" lon="-1.29848">
        <ele>27</ele>
        <time>2024-12-22T18:52:49Z</time>
      </trkpt>
      <trkpt lat="47.39542" lon="-1.29794">
        <ele>34</ele>
        <time>2024-12-22T18:55:51Z</time>
      </trkpt>
      <trkpt lat="47.39448" lon="-1.29879">
        <ele>36</ele>
        <time>2024-12-22T18:58:18Z</time>
      </trkpt>
      <trkpt lat="47.39435" lon="-1.30134">
        <ele>18</ele>
        <time>2024-12-22T19:02:09Z</time>
      </trkpt>
      <trkpt lat="47.39275" lon="-1.30334">
        <ele>23</ele>
        <time>2024-12-22T19:06:49Z</time>
      </trkpt>
      <trkpt lat="47.39259" lon="-1.30637">
        <ele>24</ele>
        <time>2024-12-22T19:11:23Z</time>
      </trkpt>
      <trkpt lat="47.3925" lon="-1.30977">
        <ele>30</ele>
        <time>2024-12-22T19:16:31Z</time>
      </trkpt>
      <trkpt lat="47.39369" lon="-1.31074">
        <ele>46</ele>
        <time>2024-12-22T19:19:32Z</time>
      </trkpt>
      <trkpt lat="47.39398" lon="-1.31165">
        <ele>45</ele>
        <time>2024-12-22T19:21:03Z</time>
      </trkpt>
      <trkpt lat="47.39505" lon="-1.31238">
        <ele>47</ele>
        <time>2024-12-22T19:23:40Z</time>
      </trkpt>
      <trkpt lat="47.39464" lon="-1.31499">
        <ele>38</ele>
        <time>2024-12-22T19:27:42Z</time>
      </trkpt>
      <trkpt lat="47.40043" lon="-1.33205">
        <ele>36</ele>
        <time>2024-12-22T19:56:26Z</time>
      </trkpt>
      <trkpt lat="47.40191" lon="-1.33387">
        <ele>37</ele>
        <time>2024-12-22T20:00:43Z</time>
      </trkpt>
      <trkpt lat="47.40175" lon="-1.33629">
        <ele>43</ele>
        <time>2024-12-22T20:04:23Z</time>
      </trkpt>
      <trkpt lat="47.4006" lon="-1.33818">
        <ele>44</ele>
        <time>2024-12-22T20:08:12Z</time>
      </trkpt>
      <trkpt lat="47.40113" lon="-1.34115">
        <ele>34</ele>
        <time>2024-12-22T20:12:50Z</time>
      </trkpt>
      <trkpt lat="47.4022" lon="-1.34358">
        <ele>29</ele>
        <time>2024-12-22T20:17:12Z</time>
      </trkpt>
      <trkpt lat="47.40125" lon="-1.34431">
        <ele>31</ele>
        <time>2024-12-22T20:19:34Z</time>
      </trkpt>
      <trkpt lat="47.40249" lon="-1.35189">
        <ele>34</ele>
        <time>2024-12-22T20:31:19Z</time>
      </trkpt>
      <trkpt lat="47.40569" lon="-1.34977">
        <ele>34</ele>
        <time>2024-12-22T20:39:07Z</time>
      </trkpt>
      <trkpt lat="47.40746" lon="-1.35426">
        <ele>34</ele>
        <time>2024-12-22T20:46:56Z</time>
      </trkpt>
      <trkpt lat="47.40906" lon="-1.36658">
        <ele>44</ele>
        <time>2024-12-22T21:05:49Z</time>
      </trkpt>
      <trkpt lat="47.40737" lon="-1.36919">
        <ele>38</ele>
        <time>2024-12-22T21:11:15Z</time>
      </trkpt>
      <trkpt lat="47.41217" lon="-1.37718">
        <ele>38</ele>
        <time>2024-12-22T21:27:20Z</time>
      </trkpt>
    </trkseg>
  </trk>
  <trk>
    <name><![CDATA[Ligne_Musse_12.3km-6837567]]></name>
    <extensions>
      <line xmlns="http://www.topografix.com/GPX/gpx_style/0/2">
        <color>FF00FF</color>
        <width>4</width>
      </line>
    </extensions>
    <trkseg>
      <trkpt lat="47.40771" lon="-1.37303">
        <ele>35</ele>
        <time>2024-12-22T14:36:41Z</time>
      </trkpt>
      <trkpt lat="47.40923" lon="-1.37138">
        <ele>43</ele>
        <time>2024-12-22T14:40:53Z</time>
      </trkpt>
      <trkpt lat="47.40856" lon="-1.36995">
        <ele>42</ele>
        <time>2024-12-22T14:43:30Z</time>
      </trkpt>
      <trkpt lat="47.4074" lon="-1.36887">
        <ele>38</ele>
        <time>2024-12-22T14:46:33Z</time>
      </trkpt>
      <trkpt lat="47.4062" lon="-1.36978">
        <ele>37</ele>
        <time>2024-12-22T14:49:33Z</time>
      </trkpt>
      <trkpt lat="47.40012" lon="-1.37156">
        <ele>50</ele>
        <time>2024-12-22T15:03:20Z</time>
      </trkpt>
      <trkpt lat="47.39681" lon="-1.37271">
        <ele>54</ele>
        <time>2024-12-22T15:10:54Z</time>
      </trkpt>
      <trkpt lat="47.39433" lon="-1.37311">
        <ele>51</ele>
        <time>2024-12-22T15:16:27Z</time>
      </trkpt>
      <trkpt lat="47.39304" lon="-1.37388">
        <ele>49</ele>
        <time>2024-12-22T15:19:32Z</time>
      </trkpt>
      <trkpt lat="47.39398" lon="-1.37509">
        <ele>50</ele>
        <time>2024-12-22T15:22:19Z</time>
      </trkpt>
      <trkpt lat="47.39517" lon="-1.37537">
        <ele>51</ele>
        <time>2024-12-22T15:24:59Z</time>
      </trkpt>
      <trkpt lat="47.39699" lon="-1.37497">
        <ele>53</ele>
        <time>2024-12-22T15:29:05Z</time>
      </trkpt>
      <trkpt lat="47.39805" lon="-1.37724">
        <ele>55</ele>
        <time>2024-12-22T15:33:14Z</time>
      </trkpt>
      <trkpt lat="47.39868" lon="-1.37909">
        <ele>58</ele>
        <time>2024-12-22T15:36:21Z</time>
      </trkpt>
      <trkpt lat="47.39803" lon="-1.38">
        <ele>56</ele>
        <time>2024-12-22T15:38:21Z</time>
      </trkpt>
      <trkpt lat="47.39753" lon="-1.3804">
        <ele>55</ele>
        <time>2024-12-22T15:39:36Z</time>
      </trkpt>
      <trkpt lat="47.39783" lon="-1.38328">
        <ele>53</ele>
        <time>2024-12-22T15:44:00Z</time>
      </trkpt>
      <trkpt lat="47.39755" lon="-1.38474">
        <ele>51</ele>
        <time>2024-12-22T15:46:17Z</time>
      </trkpt>
      <trkpt lat="47.39778" lon="-1.38591">
        <ele>51</ele>
        <time>2024-12-22T15:48:07Z</time>
      </trkpt>
      <trkpt lat="47.39804" lon="-1.38764">
        <ele>48</ele>
        <time>2024-12-22T15:50:47Z</time>
      </trkpt>
      <trkpt lat="47.39941" lon="-1.3896">
        <ele>48</ele>
        <time>2024-12-22T15:55:01Z</time>
      </trkpt>
      <trkpt lat="47.40067" lon="-1.3937">
        <ele>43</ele>
        <time>2024-12-22T16:01:48Z</time>
      </trkpt>
      <trkpt lat="47.40107" lon="-1.3943">
        <ele>43</ele>
        <time>2024-12-22T16:03:04Z</time>
      </trkpt>
      <trkpt lat="47.40271" lon="-1.39274">
        <ele>39</ele>
        <time>2024-12-22T16:07:24Z</time>
      </trkpt>
      <trkpt lat="47.404" lon="-1.39188">
        <ele>34</ele>
        <time>2024-12-22T16:10:33Z</time>
      </trkpt>
      <trkpt lat="47.40403" lon="-1.39312">
        <ele>34</ele>
        <time>2024-12-22T16:12:25Z</time>
      </trkpt>
      <trkpt lat="47.40393" lon="-1.39407">
        <ele>36</ele>
        <time>2024-12-22T16:13:52Z</time>
      </trkpt>
      <trkpt lat="47.40437" lon="-1.39548">
        <ele>35</ele>
        <time>2024-12-22T16:16:12Z</time>
      </trkpt>
      <trkpt lat="47.40474" lon="-1.39704">
        <ele>35</ele>
        <time>2024-12-22T16:18:42Z</time>
      </trkpt>
      <trkpt lat="47.40573" lon="-1.39949">
        <ele>36</ele>
        <time>2024-12-22T16:22:59Z</time>
      </trkpt>
      <trkpt lat="47.40702" lon="-1.40183">
        <ele>32</ele>
        <time>2024-12-22T16:27:32Z</time>
      </trkpt>
      <trkpt lat="47.40828" lon="-1.40282">
        <ele>27</ele>
        <time>2024-12-22T16:30:43Z</time>
      </trkpt>
      <trkpt lat="47.40992" lon="-1.40423">
        <ele>20</ele>
        <time>2024-12-22T16:34:56Z</time>
      </trkpt>
      <trkpt lat="47.41042" lon="-1.40479">
        <ele>20</ele>
        <time>2024-12-22T16:36:19Z</time>
      </trkpt>
      <trkpt lat="47.41052" lon="-1.40575">
        <ele>19</ele>
        <time>2024-12-22T16:37:47Z</time>
      </trkpt>
      <trkpt lat="47.41244" lon="-1.40765">
        <ele>19</ele>
        <time>2024-12-22T16:42:56Z</time>
      </trkpt>
      <trkpt lat="47.41438" lon="-1.40965">
        <ele>16</ele>
        <time>2024-12-22T16:48:11Z</time>
      </trkpt>
      <trkpt lat="47.4151" lon="-1.4086">
        <ele>16</ele>
        <time>2024-12-22T16:50:26Z</time>
      </trkpt>
      <trkpt lat="47.41456" lon="-1.40317">
        <ele>17</ele>
        <time>2024-12-22T16:58:42Z</time>
      </trkpt>
      <trkpt lat="47.41626" lon="-1.40252">
        <ele>22</ele>
        <time>2024-12-22T17:02:36Z</time>
      </trkpt>
      <trkpt lat="47.41784" lon="-1.40177">
        <ele>21</ele>
        <time>2024-12-22T17:06:18Z</time>
      </trkpt>
      <trkpt lat="47.41853" lon="-1.39858">
        <ele>22</ele>
        <time>2024-12-22T17:11:20Z</time>
      </trkpt>
      <trkpt lat="47.42096" lon="-1.39875">
        <ele>28</ele>
        <time>2024-12-22T17:16:45Z</time>
      </trkpt>
      <trkpt lat="47.42305" lon="-1.39913">
        <ele>28</ele>
        <time>2024-12-22T17:21:26Z</time>
      </trkpt>
      <trkpt lat="47.4217" lon="-1.3977">
        <ele>31</ele>
        <time>2024-12-22T17:25:07Z</time>
      </trkpt>
      <trkpt lat="47.42438" lon="-1.39411">
        <ele>27</ele>
        <time>2024-12-22T17:33:10Z</time>
      </trkpt>
      <trkpt lat="47.42517" lon="-1.39264">
        <ele>29</ele>
        <time>2024-12-22T17:35:59Z</time>
      </trkpt>
      <trkpt lat="47.4247" lon="-1.38525">
        <ele>28</ele>
        <time>2024-12-22T17:47:10Z</time>
      </trkpt>
      <trkpt lat="47.42334" lon="-1.37804">
        <ele>21</ele>
        <time>2024-12-22T17:58:25Z</time>
      </trkpt>
      <trkpt lat="47.42277" lon="-1.37361">
        <ele>24</ele>
        <time>2024-12-22T18:05:12Z</time>
      </trkpt>
      <trkpt lat="47.42109" lon="-1.3733">
        <ele>26</ele>
        <time>2024-12-22T18:08:58Z</time>
      </trkpt>
      <trkpt lat="47.41873" lon="-1.37414">
        <ele>34</ele>
        <time>2024-12-22T18:14:22Z</time>
      </trkpt>
      <trkpt lat="47.41396" lon="-1.37644">
        <ele>30</ele>
        <time>2024-12-22T18:25:32Z</time>
      </trkpt>
      <trkpt lat="47.41236" lon="-1.37694">
        <ele>37</ele>
        <time>2024-12-22T18:29:10Z</time>
      </trkpt>
      <trkpt lat="47.41205" lon="-1.37654">
        <ele>37</ele>
        <time>2024-12-22T18:30:05Z</time>
      </trkpt>
      <trkpt lat="47.41145" lon="-1.37583">
        <ele>38</ele>
        <time>2024-12-22T18:31:48Z</time>
      </trkpt>
      <trkpt lat="47.41113" lon="-1.37586">
        <ele>39</ele>
        <time>2024-12-22T18:32:30Z</time>
      </trkpt>
      <trkpt lat="47.41006" lon="-1.37387">
        <ele>39</ele>
        <time>2024-12-22T18:36:20Z</time>
      </trkpt>
      <trkpt lat="47.40885" lon="-1.37202">
        <ele>41</ele>
        <time>2024-12-22T18:40:12Z</time>
      </trkpt>
      <trkpt lat="47.40771" lon="-1.37298">
        <ele>35</ele>
        <time>2024-12-22T18:43:07Z</time>
      </trkpt>
    </trkseg>
  </trk>
  <trk>
    <name><![CDATA[Ligne_HautesLandes_11.4km-6837548]]></name>
    <extensions>
      <line xmlns="http://www.topografix.com/GPX/gpx_style/0/2">
        <color>000088</color>
        <width>4</width>
      </line>
    </extensions>
    <trkseg>
      <trkpt lat="47.40794" lon="-1.37297">
        <ele>36</ele>
        <time>2024-12-22T14:36:13Z</time>
      </trkpt>
      <trkpt lat="47.40784" lon="-1.37217">
        <ele>37</ele>
        <time>2024-12-22T14:37:26Z</time>
      </trkpt>
      <trkpt lat="47.40885" lon="-1.37168">
        <ele>41</ele>
        <time>2024-12-22T14:39:48Z</time>
      </trkpt>
      <trkpt lat="47.4085" lon="-1.3698">
        <ele>42</ele>
        <time>2024-12-22T14:42:44Z</time>
      </trkpt>
      <trkpt lat="47.40731" lon="-1.36885">
        <ele>38</ele>
        <time>2024-12-22T14:45:45Z</time>
      </trkpt>
      <trkpt lat="47.40783" lon="-1.36828">
        <ele>40</ele>
        <time>2024-12-22T14:47:11Z</time>
      </trkpt>
      <trkpt lat="47.4082" lon="-1.36783">
        <ele>41</ele>
        <time>2024-12-22T14:48:15Z</time>
      </trkpt>
      <trkpt lat="47.4084" lon="-1.36747">
        <ele>41</ele>
        <time>2024-12-22T14:48:57Z</time>
      </trkpt>
      <trkpt lat="47.40867" lon="-1.36689">
        <ele>43</ele>
        <time>2024-12-22T14:50:01Z</time>
      </trkpt>
      <trkpt lat="47.4089" lon="-1.36642">
        <ele>43</ele>
        <time>2024-12-22T14:50:53Z</time>
      </trkpt>
      <trkpt lat="47.40978" lon="-1.36493">
        <ele>44</ele>
        <time>2024-12-22T14:53:52Z</time>
      </trkpt>
      <trkpt lat="47.41055" lon="-1.36354">
        <ele>44</ele>
        <time>2024-12-22T14:56:34Z</time>
      </trkpt>
      <trkpt lat="47.41111" lon="-1.36223">
        <ele>44</ele>
        <time>2024-12-22T14:58:54Z</time>
      </trkpt>
      <trkpt lat="47.4119" lon="-1.36076">
        <ele>41</ele>
        <time>2024-12-22T15:01:44Z</time>
      </trkpt>
      <trkpt lat="47.41253" lon="-1.35946">
        <ele>41</ele>
        <time>2024-12-22T15:04:08Z</time>
      </trkpt>
      <trkpt lat="47.41194" lon="-1.35818">
        <ele>42</ele>
        <time>2024-12-22T15:06:28Z</time>
      </trkpt>
      <trkpt lat="47.41141" lon="-1.35574">
        <ele>41</ele>
        <time>2024-12-22T15:10:19Z</time>
      </trkpt>
      <trkpt lat="47.41132" lon="-1.35427">
        <ele>41</ele>
        <time>2024-12-22T15:12:33Z</time>
      </trkpt>
      <trkpt lat="47.4111" lon="-1.35331">
        <ele>41</ele>
        <time>2024-12-22T15:14:04Z</time>
      </trkpt>
      <trkpt lat="47.41118" lon="-1.35206">
        <ele>40</ele>
        <time>2024-12-22T15:15:57Z</time>
      </trkpt>
      <trkpt lat="47.41118" lon="-1.35195">
        <ele>40</ele>
        <time>2024-12-22T15:16:07Z</time>
      </trkpt>
      <trkpt lat="47.41124" lon="-1.3516">
        <ele>40</ele>
        <time>2024-12-22T15:16:40Z</time>
      </trkpt>
      <trkpt lat="47.41073" lon="-1.35035">
        <ele>40</ele>
        <time>2024-12-22T15:18:52Z</time>
      </trkpt>
      <trkpt lat="47.41003" lon="-1.34908">
        <ele>37</ele>
        <time>2024-12-22T15:21:20Z</time>
      </trkpt>
      <trkpt lat="47.40963" lon="-1.34816">
        <ele>37</ele>
        <time>2024-12-22T15:22:58Z</time>
      </trkpt>
      <trkpt lat="47.40836" lon="-1.34917">
        <ele>31</ele>
        <time>2024-12-22T15:26:11Z</time>
      </trkpt>
      <trkpt lat="47.40722" lon="-1.35021">
        <ele>30</ele>
        <time>2024-12-22T15:29:10Z</time>
      </trkpt>
      <trkpt lat="47.4062" lon="-1.35087">
        <ele>33</ele>
        <time>2024-12-22T15:31:38Z</time>
      </trkpt>
      <trkpt lat="47.40566" lon="-1.34984">
        <ele>34</ele>
        <time>2024-12-22T15:33:36Z</time>
      </trkpt>
      <trkpt lat="47.40416" lon="-1.35091">
        <ele>35</ele>
        <time>2024-12-22T15:37:18Z</time>
      </trkpt>
      <trkpt lat="47.4035" lon="-1.35132">
        <ele>33</ele>
        <time>2024-12-22T15:38:54Z</time>
      </trkpt>
      <trkpt lat="47.40248" lon="-1.35193">
        <ele>34</ele>
        <time>2024-12-22T15:41:21Z</time>
      </trkpt>
      <trkpt lat="47.40224" lon="-1.35014">
        <ele>36</ele>
        <time>2024-12-22T15:44:05Z</time>
      </trkpt>
      <trkpt lat="47.40179" lon="-1.34798">
        <ele>34</ele>
        <time>2024-12-22T15:47:30Z</time>
      </trkpt>
      <trkpt lat="47.40165" lon="-1.34647">
        <ele>33</ele>
        <time>2024-12-22T15:49:47Z</time>
      </trkpt>
      <trkpt lat="47.40164" lon="-1.34571">
        <ele>32</ele>
        <time>2024-12-22T15:50:56Z</time>
      </trkpt>
      <trkpt lat="47.40139" lon="-1.3444">
        <ele>31</ele>
        <time>2024-12-22T15:52:59Z</time>
      </trkpt>
      <trkpt lat="47.40174" lon="-1.34379">
        <ele>29</ele>
        <time>2024-12-22T15:54:11Z</time>
      </trkpt>
      <trkpt lat="47.40216" lon="-1.34364">
        <ele>29</ele>
        <time>2024-12-22T15:55:09Z</time>
      </trkpt>
      <trkpt lat="47.40173" lon="-1.34234">
        <ele>29</ele>
        <time>2024-12-22T15:57:19Z</time>
      </trkpt>
      <trkpt lat="47.40106" lon="-1.34079">
        <ele>36</ele>
        <time>2024-12-22T16:00:06Z</time>
      </trkpt>
      <trkpt lat="47.40085" lon="-1.33981">
        <ele>42</ele>
        <time>2024-12-22T16:01:38Z</time>
      </trkpt>
      <trkpt lat="47.4007" lon="-1.33841">
        <ele>44</ele>
        <time>2024-12-22T16:03:46Z</time>
      </trkpt>
      <trkpt lat="47.40103" lon="-1.33736">
        <ele>44</ele>
        <time>2024-12-22T16:05:31Z</time>
      </trkpt>
      <trkpt lat="47.40167" lon="-1.33622">
        <ele>44</ele>
        <time>2024-12-22T16:07:45Z</time>
      </trkpt>
      <trkpt lat="47.40372" lon="-1.33656">
        <ele>30</ele>
        <time>2024-12-22T16:12:20Z</time>
      </trkpt>
      <trkpt lat="47.40523" lon="-1.33697">
        <ele>25</ele>
        <time>2024-12-22T16:15:45Z</time>
      </trkpt>
      <trkpt lat="47.40609" lon="-1.337">
        <ele>26</ele>
        <time>2024-12-22T16:17:40Z</time>
      </trkpt>
      <trkpt lat="47.40764" lon="-1.33703">
        <ele>33</ele>
        <time>2024-12-22T16:21:07Z</time>
      </trkpt>
      <trkpt lat="47.40739" lon="-1.3341">
        <ele>32</ele>
        <time>2024-12-22T16:25:33Z</time>
      </trkpt>
      <trkpt lat="47.40718" lon="-1.32926">
        <ele>30</ele>
        <time>2024-12-22T16:32:51Z</time>
      </trkpt>
      <trkpt lat="47.40711" lon="-1.32778">
        <ele>29</ele>
        <time>2024-12-22T16:35:05Z</time>
      </trkpt>
      <trkpt lat="47.4071" lon="-1.32628">
        <ele>28</ele>
        <time>2024-12-22T16:37:21Z</time>
      </trkpt>
      <trkpt lat="47.40848" lon="-1.32574">
        <ele>34</ele>
        <time>2024-12-22T16:40:31Z</time>
      </trkpt>
      <trkpt lat="47.41005" lon="-1.32527">
        <ele>36</ele>
        <time>2024-12-22T16:44:05Z</time>
      </trkpt>
      <trkpt lat="47.41003" lon="-1.32567">
        <ele>37</ele>
        <time>2024-12-22T16:44:41Z</time>
      </trkpt>
      <trkpt lat="47.41023" lon="-1.32693">
        <ele>38</ele>
        <time>2024-12-22T16:46:38Z</time>
      </trkpt>
      <trkpt lat="47.41031" lon="-1.32826">
        <ele>38</ele>
        <time>2024-12-22T16:48:39Z</time>
      </trkpt>
      <trkpt lat="47.41014" lon="-1.32939">
        <ele>38</ele>
        <time>2024-12-22T16:50:23Z</time>
      </trkpt>
      <trkpt lat="47.40994" lon="-1.33084">
        <ele>39</ele>
        <time>2024-12-22T16:52:37Z</time>
      </trkpt>
      <trkpt lat="47.4101" lon="-1.33233">
        <ele>38</ele>
        <time>2024-12-22T16:54:53Z</time>
      </trkpt>
      <trkpt lat="47.41038" lon="-1.33423">
        <ele>39</ele>
        <time>2024-12-22T16:57:49Z</time>
      </trkpt>
      <trkpt lat="47.41072" lon="-1.33613">
        <ele>40</ele>
        <time>2024-12-22T17:00:46Z</time>
      </trkpt>
      <trkpt lat="47.41079" lon="-1.33852">
        <ele>41</ele>
        <time>2024-12-22T17:04:22Z</time>
      </trkpt>
      <trkpt lat="47.41185" lon="-1.33875">
        <ele>40</ele>
        <time>2024-12-22T17:06:45Z</time>
      </trkpt>
      <trkpt lat="47.41316" lon="-1.339">
        <ele>36</ele>
        <time>2024-12-22T17:09:42Z</time>
      </trkpt>
      <trkpt lat="47.41435" lon="-1.33955">
        <ele>33</ele>
        <time>2024-12-22T17:12:28Z</time>
      </trkpt>
      <trkpt lat="47.41548" lon="-1.34084">
        <ele>32</ele>
        <time>2024-12-22T17:15:39Z</time>
      </trkpt>
      <trkpt lat="47.41642" lon="-1.34132">
        <ele>32</ele>
        <time>2024-12-22T17:17:51Z</time>
      </trkpt>
      <trkpt lat="47.41698" lon="-1.34173">
        <ele>32</ele>
        <time>2024-12-22T17:19:15Z</time>
      </trkpt>
      <trkpt lat="47.41552" lon="-1.34524">
        <ele>34</ele>
        <time>2024-12-22T17:25:27Z</time>
      </trkpt>
      <trkpt lat="47.41424" lon="-1.3473">
        <ele>35</ele>
        <time>2024-12-22T17:29:39Z</time>
      </trkpt>
      <trkpt lat="47.41318" lon="-1.34803">
        <ele>37</ele>
        <time>2024-12-22T17:32:15Z</time>
      </trkpt>
      <trkpt lat="47.41359" lon="-1.34893">
        <ele>36</ele>
        <time>2024-12-22T17:33:53Z</time>
      </trkpt>
      <trkpt lat="47.4143" lon="-1.34987">
        <ele>35</ele>
        <time>2024-12-22T17:36:00Z</time>
      </trkpt>
      <trkpt lat="47.41487" lon="-1.3509">
        <ele>34</ele>
        <time>2024-12-22T17:38:01Z</time>
      </trkpt>
      <trkpt lat="47.41549" lon="-1.35178">
        <ele>37</ele>
        <time>2024-12-22T17:39:55Z</time>
      </trkpt>
      <trkpt lat="47.41636" lon="-1.3532">
        <ele>39</ele>
        <time>2024-12-22T17:42:48Z</time>
      </trkpt>
      <trkpt lat="47.41526" lon="-1.35449">
        <ele>39</ele>
        <time>2024-12-22T17:45:56Z</time>
      </trkpt>
      <trkpt lat="47.41439" lon="-1.356">
        <ele>40</ele>
        <time>2024-12-22T17:48:55Z</time>
      </trkpt>
      <trkpt lat="47.41349" lon="-1.35766">
        <ele>41</ele>
        <time>2024-12-22T17:52:07Z</time>
      </trkpt>
      <trkpt lat="47.41284" lon="-1.35893">
        <ele>41</ele>
        <time>2024-12-22T17:54:31Z</time>
      </trkpt>
      <trkpt lat="47.41253" lon="-1.35943">
        <ele>41</ele>
        <time>2024-12-22T17:55:32Z</time>
      </trkpt>
      <trkpt lat="47.41195" lon="-1.36064">
        <ele>41</ele>
        <time>2024-12-22T17:57:46Z</time>
      </trkpt>
      <trkpt lat="47.41146" lon="-1.36167">
        <ele>43</ele>
        <time>2024-12-22T17:59:39Z</time>
      </trkpt>
      <trkpt lat="47.41084" lon="-1.36272">
        <ele>45</ele>
        <time>2024-12-22T18:01:45Z</time>
      </trkpt>
      <trkpt lat="47.41035" lon="-1.36378">
        <ele>44</ele>
        <time>2024-12-22T18:03:41Z</time>
      </trkpt>
      <trkpt lat="47.40962" lon="-1.36533">
        <ele>44</ele>
        <time>2024-12-22T18:06:32Z</time>
      </trkpt>
      <trkpt lat="47.40876" lon="-1.36671">
        <ele>43</ele>
        <time>2024-12-22T18:09:21Z</time>
      </trkpt>
      <trkpt lat="47.4083" lon="-1.36767">
        <ele>41</ele>
        <time>2024-12-22T18:11:07Z</time>
      </trkpt>
      <trkpt lat="47.40789" lon="-1.36822">
        <ele>40</ele>
        <time>2024-12-22T18:12:21Z</time>
      </trkpt>
      <trkpt lat="47.4073" lon="-1.36882">
        <ele>38</ele>
        <time>2024-12-22T18:13:57Z</time>
      </trkpt>
      <trkpt lat="47.40847" lon="-1.36968">
        <ele>42</ele>
        <time>2024-12-22T18:16:51Z</time>
      </trkpt>
      <trkpt lat="47.40855" lon="-1.3698">
        <ele>42</ele>
        <time>2024-12-22T18:17:07Z</time>
      </trkpt>
      <trkpt lat="47.40883" lon="-1.37165">
        <ele>41</ele>
        <time>2024-12-22T18:19:58Z</time>
      </trkpt>
      <trkpt lat="47.4078" lon="-1.3721">
        <ele>37</ele>
        <time>2024-12-22T18:22:21Z</time>
      </trkpt>
      <trkpt lat="47.40797" lon="-1.37295">
        <ele>36</ele>
        <time>2024-12-22T18:23:41Z</time>
      </trkpt>
      <trkpt lat="47.40766" lon="-1.37301">
        <ele>35</ele>
        <time>2024-12-22T18:24:23Z</time>
      </trkpt>
    </trkseg>
  </trk>
</gpx>